DTA233 LFPG-FLKK
Flight info
| Callsign | DTA233 |
|---|---|
| Flight time | 10h 2m |
| Altitude | 39000 |
| Route | ERIXU DCT ETAMO DCT ADEKA DCT MOKDI DCT MEN DCT BADAM DCT KANIG DCT BGR DCT FEVIK DCT SALON DCT SADEM DCT DUNES DCT SISMO DCT KENAS DCT POS DCT TALEN DCT XESPA DCT GENIO DCT MOGIL UB31 ZEM UB726 NSL UG859 BAKAB UA603 DEKAS DCT BATIA UM629 KELEX UR984 LAG UG856 LV G856 BZ DCT KSA G652 AVUPA |
| Aircraft | B772/H-SDE2E3FGHIJ5LORVWXY/LB1D1 |
Departure
| Time | 2026-05-08 23:14 |
|---|---|
| Airport | Charles de Gaulle International Airport (LFPG) |
Arrival
| Time | 2026-05-09 09:17 |
|---|---|
| Airport | Kenneth Kaunda International Airport (FLKK) |
| Time | Latitude | Longitude | Altitude | Speed | Heading |
|---|---|---|---|---|---|
| 2026-05-08 22:38 | 49.01189 | 2.55537 | 366 ft | 0 kts | 175° |
| 2026-05-08 22:56 | 49.01195 | 2.55536 | 366 ft | 2 kts | 173° |
| 2026-05-08 22:57 | 49.01210 | 2.55534 | 366 ft | 2 kts | 174° |
| 2026-05-08 22:57 | 49.01225 | 2.55534 | 367 ft | 2 kts | 193° |
| 2026-05-08 22:57 | 49.01238 | 2.55542 | 367 ft | 2 kts | 210° |
| 2026-05-08 22:57 | 49.01250 | 2.55555 | 367 ft | 2 kts | 226° |
| 2026-05-08 22:58 | 49.01259 | 2.55573 | 368 ft | 2 kts | 243° |
| 2026-05-08 22:58 | 49.01264 | 2.55594 | 368 ft | 2 kts | 259° |
| 2026-05-08 22:58 | 49.01265 | 2.55605 | 368 ft | 1 kts | 265° |
| 2026-05-08 22:58 | 49.01265 | 2.55606 | 368 ft | 0 kts | 265° |
| 2026-05-08 23:03 | 49.01265 | 2.55602 | 368 ft | 1 kts | 265° |
| 2026-05-08 23:03 | 49.01264 | 2.55575 | 368 ft | 3 kts | 265° |
| 2026-05-08 23:04 | 49.01261 | 2.55523 | 367 ft | 6 kts | 265° |
| 2026-05-08 23:04 | 49.01257 | 2.55447 | 367 ft | 8 kts | 264° |
| 2026-05-08 23:04 | 49.01252 | 2.55353 | 367 ft | 9 kts | 264° |
| 2026-05-08 23:04 | 49.01253 | 2.55241 | 367 ft | 10 kts | 297° |
| 2026-05-08 23:05 | 49.01318 | 2.55216 | 368 ft | 10 kts | 10° |
| 2026-05-08 23:05 | 49.01378 | 2.55209 | 370 ft | 7 kts | 345° |
| 2026-05-08 23:05 | 49.01427 | 2.55187 | 372 ft | 6 kts | 344° |
| 2026-05-08 23:05 | 49.01472 | 2.55173 | 373 ft | 7 kts | 351° |
| 2026-05-08 23:06 | 49.01530 | 2.55162 | 374 ft | 9 kts | 354° |
| 2026-05-08 23:06 | 49.01597 | 2.55154 | 376 ft | 10 kts | 356° |
| 2026-05-08 23:06 | 49.01669 | 2.55149 | 378 ft | 10 kts | 357° |
| 2026-05-08 23:06 | 49.01745 | 2.55146 | 380 ft | 11 kts | 357° |
| 2026-05-08 23:07 | 49.01822 | 2.55134 | 382 ft | 11 kts | 343° |
| 2026-05-08 23:07 | 49.01905 | 2.55090 | 384 ft | 13 kts | 325° |
| 2026-05-08 23:07 | 49.01940 | 2.54956 | 383 ft | 15 kts | 272° |
| 2026-05-08 23:07 | 49.01933 | 2.54774 | 382 ft | 18 kts | 265° |
| 2026-05-08 23:08 | 49.01923 | 2.54578 | 381 ft | 19 kts | 265° |
| 2026-05-08 23:08 | 49.01913 | 2.54370 | 380 ft | 20 kts | 265° |
| 2026-05-08 23:08 | 49.01901 | 2.54154 | 380 ft | 20 kts | 264° |
| 2026-05-08 23:08 | 49.01889 | 2.53938 | 380 ft | 20 kts | 265° |
| 2026-05-08 23:09 | 49.01878 | 2.53723 | 381 ft | 20 kts | 264° |
| 2026-05-08 23:09 | 49.01864 | 2.53507 | 381 ft | 20 kts | 264° |
| 2026-05-08 23:09 | 49.01852 | 2.53289 | 382 ft | 20 kts | 265° |
| 2026-05-08 23:09 | 49.01840 | 2.53073 | 382 ft | 20 kts | 265° |
| 2026-05-08 23:10 | 49.01830 | 2.52853 | 381 ft | 21 kts | 265° |
| 2026-05-08 23:10 | 49.01817 | 2.52630 | 381 ft | 21 kts | 266° |
| 2026-05-08 23:10 | 49.01813 | 2.52425 | 380 ft | 10 kts | 278° |
| 2026-05-08 23:10 | 49.01866 | 2.52357 | 381 ft | 10 kts | 346° |
| 2026-05-08 23:11 | 49.01887 | 2.52264 | 381 ft | 11 kts | 266° |
| 2026-05-08 23:11 | 49.01879 | 2.52113 | 380 ft | 16 kts | 265° |
| 2026-05-08 23:11 | 49.01869 | 2.51916 | 378 ft | 20 kts | 265° |
| 2026-05-08 23:11 | 49.01856 | 2.51676 | 376 ft | 23 kts | 265° |
| 2026-05-08 23:12 | 49.01869 | 2.51487 | 376 ft | 15 kts | 307° |
| 2026-05-08 23:12 | 49.01958 | 2.51440 | 377 ft | 12 kts | 21° |
| 2026-05-08 23:12 | 49.02005 | 2.51537 | 379 ft | 11 kts | 58° |
| 2026-05-08 23:12 | 49.02046 | 2.51635 | 380 ft | 11 kts | 55° |
| 2026-05-08 23:13 | 49.02080 | 2.51739 | 381 ft | 11 kts | 76° |
| 2026-05-08 23:13 | 49.02091 | 2.51858 | 382 ft | 12 kts | 87° |
| 2026-05-08 23:13 | 49.02100 | 2.52047 | 383 ft | 31 kts | 85° |
| 2026-05-08 23:13 | 49.02134 | 2.52747 | 387 ft | 99 kts | 80° |
| 2026-05-08 23:14 | 49.02213 | 2.54116 | 388 ft | 157 kts | 85° |
| 2026-05-08 23:14 | 49.02317 | 2.55972 | 547 ft | 186 kts | 84° |
| 2026-05-08 23:14 | 49.02440 | 2.57797 | 1480 ft | 170 kts | 82° |
| 2026-05-08 23:14 | 49.02606 | 2.59538 | 1996 ft | 172 kts | 84° |
| 2026-05-08 23:15 | 49.02634 | 2.61464 | 2203 ft | 190 kts | 87° |
| 2026-05-08 23:15 | 49.02715 | 2.63574 | 2428 ft | 207 kts | 84° |
| 2026-05-08 23:15 | 49.02835 | 2.65862 | 2693 ft | 226 kts | 85° |
| 2026-05-08 23:15 | 49.02968 | 2.68360 | 3042 ft | 242 kts | 85° |
| 2026-05-08 23:16 | 49.03105 | 2.70968 | 3559 ft | 250 kts | 85° |
| 2026-05-08 23:16 | 49.03196 | 2.73597 | 4149 ft | 254 kts | 95° |
| 2026-05-08 23:16 | 49.02674 | 2.76185 | 4709 ft | 259 kts | 121° |
| 2026-05-08 23:16 | 49.01423 | 2.78167 | 5267 ft | 265 kts | 147° |
| 2026-05-08 23:17 | 48.99684 | 2.79067 | 5852 ft | 270 kts | 175° |
| 2026-05-08 23:17 | 48.97839 | 2.78620 | 6429 ft | 274 kts | 204° |
| 2026-05-08 23:17 | 48.96304 | 2.76914 | 7034 ft | 276 kts | 225° |
| 2026-05-08 23:17 | 48.94988 | 2.74803 | 7656 ft | 276 kts | 227° |
| 2026-05-08 23:18 | 48.93672 | 2.72646 | 8275 ft | 278 kts | 227° |
| 2026-05-08 23:18 | 48.92369 | 2.70510 | 8865 ft | 279 kts | 227° |
| 2026-05-08 23:18 | 48.91041 | 2.68335 | 9513 ft | 279 kts | 227° |
| 2026-05-08 23:18 | 48.89727 | 2.66184 | 10075 ft | 281 kts | 227° |
| 2026-05-08 23:19 | 48.88378 | 2.63977 | 10398 ft | 293 kts | 227° |
| 2026-05-08 23:19 | 48.86951 | 2.61644 | 10519 ft | 312 kts | 227° |
| 2026-05-08 23:19 | 48.85418 | 2.59142 | 10653 ft | 330 kts | 227° |
| 2026-05-08 23:19 | 48.83815 | 2.56527 | 10919 ft | 342 kts | 227° |
| 2026-05-08 23:20 | 48.82198 | 2.53892 | 11452 ft | 347 kts | 227° |
| 2026-05-08 23:20 | 48.80568 | 2.51238 | 12087 ft | 348 kts | 227° |
| 2026-05-08 23:20 | 48.78889 | 2.48508 | 12705 ft | 351 kts | 228° |
| 2026-05-08 23:20 | 48.77212 | 2.45785 | 13304 ft | 354 kts | 228° |
| 2026-05-08 23:21 | 48.75524 | 2.43045 | 13921 ft | 357 kts | 228° |
| 2026-05-08 23:21 | 48.73817 | 2.40296 | 14529 ft | 361 kts | 226° |
| 2026-05-08 23:21 | 48.71829 | 2.37944 | 15154 ft | 365 kts | 214° |
| 2026-05-08 23:21 | 48.69656 | 2.35930 | 15799 ft | 367 kts | 212° |
| 2026-05-08 23:22 | 48.67470 | 2.33962 | 16431 ft | 370 kts | 212° |
| 2026-05-08 23:22 | 48.65237 | 2.31955 | 17073 ft | 372 kts | 212° |
| 2026-05-08 23:22 | 48.63017 | 2.29960 | 17692 ft | 375 kts | 212° |
| 2026-05-08 23:22 | 48.60777 | 2.27949 | 18308 ft | 377 kts | 212° |
| 2026-05-08 23:23 | 48.58512 | 2.25915 | 18853 ft | 381 kts | 212° |
| 2026-05-08 23:23 | 48.56193 | 2.23835 | 19315 ft | 387 kts | 212° |
| 2026-05-08 23:23 | 48.53851 | 2.21827 | 19850 ft | 392 kts | 207° |
| 2026-05-08 23:23 | 48.51299 | 2.20353 | 20323 ft | 398 kts | 197° |
| 2026-05-08 23:24 | 48.48557 | 2.19582 | 20800 ft | 404 kts | 186° |
| 2026-05-08 23:24 | 48.45720 | 2.19542 | 21282 ft | 409 kts | 178° |
| 2026-05-08 23:24 | 48.42887 | 2.19774 | 21798 ft | 411 kts | 177° |
| 2026-05-08 23:24 | 48.40040 | 2.20019 | 22254 ft | 416 kts | 176° |
| 2026-05-08 23:25 | 48.37129 | 2.20266 | 22806 ft | 417 kts | 176° |
| 2026-05-08 23:25 | 48.34216 | 2.20510 | 23211 ft | 422 kts | 176° |
| 2026-05-08 23:25 | 48.31278 | 2.20755 | 23625 ft | 426 kts | 176° |
| 2026-05-08 23:25 | 48.28327 | 2.21128 | 24261 ft | 424 kts | 171° |
| 2026-05-08 23:26 | 48.25421 | 2.21809 | 24823 ft | 425 kts | 170° |
| 2026-05-08 23:26 | 48.22489 | 2.22527 | 25261 ft | 428 kts | 170° |
| 2026-05-08 23:26 | 48.19523 | 2.23252 | 25665 ft | 432 kts | 170° |
| 2026-05-08 23:26 | 48.16566 | 2.23972 | 26091 ft | 435 kts | 170° |
| 2026-05-08 23:27 | 48.13551 | 2.24705 | 26529 ft | 437 kts | 170° |
| 2026-05-08 23:27 | 48.10572 | 2.25427 | 26976 ft | 439 kts | 170° |
| 2026-05-08 23:27 | 48.07524 | 2.26011 | 27365 ft | 442 kts | 175° |
| 2026-05-08 23:27 | 48.04431 | 2.26243 | 27730 ft | 445 kts | 177° |
| 2026-05-08 23:28 | 48.01310 | 2.26439 | 28126 ft | 448 kts | 177° |
| 2026-05-08 23:28 | 47.98228 | 2.26631 | 28490 ft | 450 kts | 177° |
| 2026-05-08 23:28 | 47.95060 | 2.26830 | 28882 ft | 452 kts | 177° |
| 2026-05-08 23:28 | 47.91916 | 2.27027 | 29261 ft | 453 kts | 176° |
| 2026-05-08 23:29 | 47.88747 | 2.27227 | 29575 ft | 456 kts | 176° |
| 2026-05-08 23:29 | 47.85563 | 2.27428 | 29869 ft | 459 kts | 176° |
| 2026-05-08 23:29 | 47.82342 | 2.27632 | 30227 ft | 461 kts | 176° |
| 2026-05-08 23:29 | 47.79075 | 2.27838 | 30593 ft | 462 kts | 176° |
| 2026-05-08 23:30 | 47.75867 | 2.28041 | 30934 ft | 464 kts | 176° |
| 2026-05-08 23:30 | 47.72603 | 2.28247 | 31260 ft | 466 kts | 177° |
| 2026-05-08 23:30 | 47.69378 | 2.28450 | 31584 ft | 468 kts | 177° |
| 2026-05-08 23:30 | 47.66120 | 2.28656 | 31871 ft | 470 kts | 177° |
| 2026-05-08 23:31 | 47.62848 | 2.28862 | 32213 ft | 471 kts | 177° |
| 2026-05-08 23:31 | 47.59565 | 2.29068 | 32535 ft | 473 kts | 177° |
| 2026-05-08 23:31 | 47.56252 | 2.29276 | 32833 ft | 475 kts | 177° |
| 2026-05-08 23:31 | 47.52947 | 2.29484 | 33152 ft | 477 kts | 177° |
| 2026-05-08 23:32 | 47.49632 | 2.29691 | 33452 ft | 479 kts | 177° |
| 2026-05-08 23:32 | 47.46297 | 2.29900 | 33817 ft | 478 kts | 177° |
| 2026-05-08 23:32 | 47.42994 | 2.30107 | 34307 ft | 476 kts | 177° |
| 2026-05-08 23:32 | 47.39666 | 2.30314 | 34805 ft | 472 kts | 178° |
| 2026-05-08 23:33 | 47.36401 | 2.30518 | 35179 ft | 471 kts | 178° |
| 2026-05-08 23:33 | 47.33128 | 2.30722 | 35543 ft | 469 kts | 178° |
| 2026-05-08 23:33 | 47.29891 | 2.30923 | 35835 ft | 469 kts | 178° |
| 2026-05-08 23:33 | 47.26598 | 2.31128 | 36107 ft | 469 kts | 178° |
| 2026-05-08 23:34 | 47.23346 | 2.31330 | 36417 ft | 467 kts | 178° |
| 2026-05-08 23:34 | 47.20110 | 2.31530 | 36788 ft | 466 kts | 178° |
| 2026-05-08 23:34 | 47.16871 | 2.31731 | 37072 ft | 466 kts | 178° |
| 2026-05-08 23:34 | 47.13628 | 2.31931 | 37434 ft | 464 kts | 178° |
| 2026-05-08 23:35 | 47.10407 | 2.32130 | 37708 ft | 464 kts | 178° |
| 2026-05-08 23:35 | 47.07172 | 2.32330 | 37953 ft | 464 kts | 178° |
| 2026-05-08 23:35 | 47.03985 | 2.32526 | 38160 ft | 463 kts | 178° |
| 2026-05-08 23:35 | 47.00734 | 2.32726 | 38312 ft | 464 kts | 178° |
| 2026-05-08 23:36 | 46.97510 | 2.32924 | 38486 ft | 464 kts | 178° |
| 2026-05-08 23:36 | 46.94281 | 2.33122 | 38677 ft | 463 kts | 178° |
| 2026-05-08 23:36 | 46.91072 | 2.33319 | 38868 ft | 462 kts | 178° |
| 2026-05-08 23:36 | 46.87854 | 2.33703 | 38989 ft | 463 kts | 172° |
| 2026-05-08 23:37 | 46.81654 | 2.36392 | 38989 ft | 467 kts | 156° |
| 2026-05-08 23:37 | 46.76057 | 2.41279 | 39004 ft | 472 kts | 148° |
| 2026-05-08 23:38 | 46.70560 | 2.46548 | 38988 ft | 475 kts | 148° |
| 2026-05-08 23:38 | 46.65000 | 2.51848 | 39006 ft | 478 kts | 148° |
| 2026-05-08 23:39 | 46.59438 | 2.57127 | 38996 ft | 480 kts | 148° |
| 2026-05-08 23:39 | 46.53820 | 2.62441 | 38992 ft | 482 kts | 148° |
| 2026-05-08 23:40 | 46.48193 | 2.67746 | 38993 ft | 483 kts | 149° |
| 2026-05-08 23:40 | 46.42520 | 2.73081 | 38986 ft | 484 kts | 149° |
| 2026-05-08 23:41 | 46.36871 | 2.78379 | 38994 ft | 486 kts | 149° |
| 2026-05-08 23:41 | 46.31176 | 2.83707 | 39009 ft | 487 kts | 149° |
| 2026-05-08 23:42 | 46.25501 | 2.89001 | 39002 ft | 487 kts | 149° |
| 2026-05-08 23:42 | 46.19798 | 2.94309 | 38995 ft | 488 kts | 149° |
| 2026-05-08 23:43 | 46.14109 | 2.99591 | 39014 ft | 488 kts | 149° |
| 2026-05-08 23:43 | 46.08388 | 3.04888 | 38999 ft | 489 kts | 149° |
| 2026-05-08 23:44 | 46.02641 | 3.10196 | 39016 ft | 489 kts | 149° |
| 2026-05-08 23:44 | 45.96788 | 3.15027 | 39028 ft | 485 kts | 160° |
| 2026-05-08 23:45 | 45.90328 | 3.17531 | 39015 ft | 480 kts | 175° |
| 2026-05-08 23:45 | 45.83657 | 3.17802 | 39030 ft | 478 kts | 182° |
| 2026-05-08 23:46 | 45.76998 | 3.17743 | 39028 ft | 478 kts | 182° |
| 2026-05-08 23:46 | 45.70327 | 3.17669 | 39023 ft | 478 kts | 182° |
| 2026-05-08 23:47 | 45.63627 | 3.17587 | 39049 ft | 479 kts | 182° |
| 2026-05-08 23:47 | 45.56993 | 3.17503 | 39026 ft | 479 kts | 182° |
| 2026-05-08 23:48 | 45.50315 | 3.17416 | 39041 ft | 478 kts | 182° |
| 2026-05-08 23:48 | 45.43666 | 3.17329 | 39040 ft | 479 kts | 183° |
| 2026-05-08 23:49 | 45.36958 | 3.17240 | 39040 ft | 479 kts | 183° |
| 2026-05-08 23:49 | 45.30301 | 3.17152 | 39068 ft | 479 kts | 183° |
| 2026-05-08 23:50 | 45.23662 | 3.17065 | 39059 ft | 479 kts | 183° |
| 2026-05-08 23:50 | 45.16991 | 3.16977 | 39049 ft | 479 kts | 183° |
| 2026-05-08 23:51 | 45.10328 | 3.16889 | 39056 ft | 479 kts | 183° |
| 2026-05-08 23:51 | 45.03675 | 3.16802 | 39064 ft | 479 kts | 183° |
| 2026-05-08 23:52 | 44.97000 | 3.16714 | 39067 ft | 479 kts | 184° |
| 2026-05-08 23:52 | 44.90316 | 3.16627 | 39066 ft | 479 kts | 184° |
| 2026-05-08 23:53 | 44.83643 | 3.16539 | 39071 ft | 479 kts | 184° |
| 2026-05-08 23:53 | 44.76932 | 3.16451 | 39070 ft | 479 kts | 184° |
| 2026-05-08 23:54 | 44.70274 | 3.16365 | 39074 ft | 478 kts | 184° |
| 2026-05-08 23:55 | 44.60284 | 3.16235 | 39068 ft | 478 kts | 184° |
| 2026-05-08 23:55 | 44.53661 | 3.16325 | 39060 ft | 479 kts | 183° |
| 2026-05-08 23:56 | 44.46948 | 3.16444 | 39067 ft | 479 kts | 183° |
| 2026-05-08 23:56 | 44.40287 | 3.16556 | 39062 ft | 478 kts | 183° |
| 2026-05-08 23:57 | 44.33638 | 3.16663 | 39056 ft | 478 kts | 184° |
| 2026-05-08 23:57 | 44.27000 | 3.16769 | 39059 ft | 478 kts | 184° |
| 2026-05-08 23:58 | 44.20334 | 3.16873 | 39061 ft | 478 kts | 184° |
| 2026-05-08 23:58 | 44.13712 | 3.16977 | 39050 ft | 478 kts | 184° |
| 2026-05-08 23:59 | 44.07099 | 3.16878 | 39049 ft | 474 kts | 189° |
| 2026-05-08 23:59 | 44.00505 | 3.16097 | 39040 ft | 472 kts | 189° |
| 2026-05-09 00:00 | 43.93911 | 3.15303 | 39043 ft | 472 kts | 189° |
| 2026-05-09 00:00 | 43.87458 | 3.14531 | 39045 ft | 472 kts | 189° |
| 2026-05-09 00:01 | 43.80908 | 3.13751 | 39044 ft | 472 kts | 190° |
| 2026-05-09 00:01 | 43.74381 | 3.12976 | 39044 ft | 471 kts | 190° |
| 2026-05-09 00:02 | 43.67826 | 3.12200 | 39036 ft | 470 kts | 190° |
| 2026-05-09 00:02 | 43.61286 | 3.11427 | 39028 ft | 470 kts | 190° |
| 2026-05-09 00:03 | 43.54775 | 3.10660 | 39030 ft | 470 kts | 190° |
| 2026-05-09 00:03 | 43.48266 | 3.09896 | 39025 ft | 468 kts | 191° |
| 2026-05-09 00:04 | 43.41753 | 3.09131 | 39022 ft | 468 kts | 191° |
| 2026-05-09 00:04 | 43.35257 | 3.08371 | 39027 ft | 467 kts | 191° |
| 2026-05-09 00:05 | 43.28775 | 3.07614 | 39024 ft | 467 kts | 191° |
| 2026-05-09 00:05 | 43.22285 | 3.06858 | 39016 ft | 466 kts | 191° |
| 2026-05-09 00:06 | 43.15833 | 3.06108 | 39015 ft | 465 kts | 191° |
| 2026-05-09 00:06 | 43.09361 | 3.05357 | 39004 ft | 464 kts | 191° |
| 2026-05-09 00:07 | 43.02926 | 3.04611 | 39009 ft | 465 kts | 191° |
| 2026-05-09 00:07 | 42.96471 | 3.03865 | 39000 ft | 464 kts | 191° |
| 2026-05-09 00:08 | 42.90049 | 3.03125 | 38989 ft | 463 kts | 192° |
| 2026-05-09 00:08 | 42.83713 | 3.02395 | 39008 ft | 464 kts | 192° |
| 2026-05-09 00:09 | 42.77303 | 3.01660 | 39008 ft | 461 kts | 192° |
| 2026-05-09 00:09 | 42.70883 | 3.00924 | 39013 ft | 462 kts | 192° |
| 2026-05-09 00:10 | 42.64478 | 3.00192 | 39016 ft | 460 kts | 192° |
| 2026-05-09 00:10 | 42.58115 | 2.99466 | 39017 ft | 459 kts | 192° |
| 2026-05-09 00:11 | 42.51786 | 2.98774 | 39005 ft | 460 kts | 190° |
| 2026-05-09 00:11 | 42.45317 | 2.99569 | 39007 ft | 478 kts | 175° |
| 2026-05-09 00:12 | 42.38856 | 3.02191 | 39011 ft | 484 kts | 171° |
| 2026-05-09 00:12 | 42.32455 | 3.04936 | 39019 ft | 483 kts | 172° |
| 2026-05-09 00:13 | 42.26025 | 3.07677 | 39001 ft | 485 kts | 172° |
| 2026-05-09 00:13 | 42.19590 | 3.10410 | 39023 ft | 485 kts | 172° |
| 2026-05-09 00:14 | 42.13148 | 3.13140 | 39021 ft | 483 kts | 172° |
| 2026-05-09 00:14 | 42.06741 | 3.15848 | 39025 ft | 482 kts | 172° |
| 2026-05-09 00:15 | 42.00359 | 3.18536 | 39027 ft | 482 kts | 172° |
| 2026-05-09 00:15 | 41.93907 | 3.20531 | 39028 ft | 465 kts | 184° |
| 2026-05-09 00:16 | 41.87546 | 3.20538 | 39025 ft | 455 kts | 191° |
| 2026-05-09 00:16 | 41.81200 | 3.20233 | 39027 ft | 456 kts | 191° |
| 2026-05-09 00:17 | 41.74848 | 3.19929 | 39037 ft | 456 kts | 191° |
| 2026-05-09 00:17 | 41.68536 | 3.19627 | 39042 ft | 457 kts | 191° |
| 2026-05-09 00:18 | 41.62163 | 3.19324 | 39046 ft | 456 kts | 191° |
| 2026-05-09 00:18 | 41.55863 | 3.19025 | 39037 ft | 455 kts | 191° |
| 2026-05-09 00:19 | 41.49527 | 3.18723 | 39022 ft | 455 kts | 191° |
| 2026-05-09 00:19 | 41.43174 | 3.18422 | 39024 ft | 457 kts | 191° |
| 2026-05-09 00:20 | 41.36841 | 3.18123 | 39020 ft | 456 kts | 192° |
| 2026-05-09 00:20 | 41.30487 | 3.17823 | 39024 ft | 456 kts | 192° |
| 2026-05-09 00:21 | 41.24146 | 3.17524 | 39021 ft | 457 kts | 192° |
| 2026-05-09 00:21 | 41.17795 | 3.17227 | 39015 ft | 455 kts | 192° |
| 2026-05-09 00:22 | 41.11464 | 3.16928 | 39019 ft | 456 kts | 192° |
| 2026-05-09 00:22 | 41.05148 | 3.16632 | 39018 ft | 456 kts | 192° |
| 2026-05-09 00:23 | 40.98790 | 3.16334 | 39016 ft | 456 kts | 192° |
| 2026-05-09 00:23 | 40.92483 | 3.16041 | 39014 ft | 455 kts | 192° |
| 2026-05-09 00:24 | 40.86090 | 3.15742 | 39022 ft | 455 kts | 192° |
| 2026-05-09 00:24 | 40.79777 | 3.15451 | 39022 ft | 455 kts | 192° |
| 2026-05-09 00:25 | 40.73465 | 3.15160 | 39021 ft | 454 kts | 192° |
| 2026-05-09 00:25 | 40.67136 | 3.14869 | 39023 ft | 455 kts | 192° |
| 2026-05-09 00:26 | 40.60836 | 3.14580 | 39022 ft | 454 kts | 192° |
| 2026-05-09 00:26 | 40.54530 | 3.14285 | 39017 ft | 454 kts | 192° |
| 2026-05-09 00:27 | 40.48219 | 3.13991 | 39018 ft | 453 kts | 192° |
| 2026-05-09 00:27 | 40.41872 | 3.13698 | 39017 ft | 454 kts | 192° |
| 2026-05-09 00:28 | 40.35595 | 3.13410 | 39017 ft | 453 kts | 191° |
| 2026-05-09 00:28 | 40.29281 | 3.13122 | 39017 ft | 452 kts | 191° |
| 2026-05-09 00:29 | 40.23016 | 3.12835 | 39016 ft | 453 kts | 192° |
| 2026-05-09 00:29 | 40.16695 | 3.12546 | 39016 ft | 452 kts | 191° |
| 2026-05-09 00:30 | 40.10383 | 3.12259 | 39013 ft | 453 kts | 192° |
| 2026-05-09 00:30 | 40.04140 | 3.11976 | 39014 ft | 452 kts | 192° |
| 2026-05-09 00:31 | 39.97839 | 3.11690 | 39010 ft | 451 kts | 192° |
| 2026-05-09 00:31 | 39.91538 | 3.11414 | 39010 ft | 454 kts | 190° |
| 2026-05-09 00:32 | 39.85206 | 3.11548 | 39020 ft | 454 kts | 188° |
| 2026-05-09 00:32 | 39.78892 | 3.11709 | 39018 ft | 454 kts | 188° |
| 2026-05-09 00:33 | 39.72578 | 3.11855 | 39014 ft | 455 kts | 189° |
| 2026-05-09 00:33 | 39.66211 | 3.11994 | 39016 ft | 455 kts | 188° |
| 2026-05-09 00:34 | 39.59879 | 3.12129 | 39014 ft | 455 kts | 188° |
| 2026-05-09 00:34 | 39.53548 | 3.12261 | 39011 ft | 454 kts | 189° |
| 2026-05-09 00:35 | 39.47223 | 3.12392 | 39011 ft | 453 kts | 188° |
| 2026-05-09 00:35 | 39.40892 | 3.12520 | 39008 ft | 453 kts | 188° |
| 2026-05-09 00:36 | 39.34601 | 3.12650 | 39005 ft | 452 kts | 189° |
| 2026-05-09 00:36 | 39.28297 | 3.12777 | 39001 ft | 452 kts | 188° |
| 2026-05-09 00:37 | 39.22002 | 3.12904 | 38997 ft | 453 kts | 188° |
| 2026-05-09 00:37 | 39.15680 | 3.13033 | 38997 ft | 452 kts | 188° |
| 2026-05-09 00:38 | 39.09404 | 3.13159 | 38994 ft | 452 kts | 188° |
| 2026-05-09 00:38 | 39.03113 | 3.13287 | 38991 ft | 453 kts | 188° |
| 2026-05-09 00:39 | 38.96847 | 3.13416 | 38989 ft | 451 kts | 188° |
| 2026-05-09 00:39 | 38.90540 | 3.13543 | 38988 ft | 452 kts | 188° |
| 2026-05-09 00:40 | 38.84275 | 3.13670 | 38996 ft | 453 kts | 188° |
| 2026-05-09 00:40 | 38.77977 | 3.13798 | 38993 ft | 452 kts | 188° |
| 2026-05-09 00:41 | 38.68530 | 3.13989 | 38990 ft | 453 kts | 188° |
| 2026-05-09 00:41 | 38.62223 | 3.14115 | 38988 ft | 454 kts | 188° |
| 2026-05-09 00:42 | 38.55882 | 3.14243 | 38985 ft | 454 kts | 188° |
| 2026-05-09 00:42 | 38.49553 | 3.14371 | 38988 ft | 454 kts | 188° |
| 2026-05-09 00:43 | 38.43235 | 3.14498 | 38983 ft | 454 kts | 188° |
| 2026-05-09 00:43 | 38.36941 | 3.14626 | 38985 ft | 454 kts | 188° |
| 2026-05-09 00:44 | 38.30599 | 3.14828 | 38977 ft | 460 kts | 184° |
| 2026-05-09 00:44 | 38.27407 | 3.15446 | 38976 ft | 471 kts | 176° |
| 2026-05-09 00:44 | 38.24192 | 3.16476 | 38984 ft | 475 kts | 175° |
| 2026-05-09 00:45 | 38.17807 | 3.18629 | 38978 ft | 475 kts | 174° |
| 2026-05-09 00:45 | 38.11442 | 3.20741 | 38975 ft | 473 kts | 176° |
| 2026-05-09 00:46 | 38.05013 | 3.22535 | 38974 ft | 472 kts | 177° |
| 2026-05-09 00:46 | 37.98625 | 3.24304 | 38978 ft | 472 kts | 177° |
| 2026-05-09 00:47 | 37.92182 | 3.26095 | 38970 ft | 472 kts | 177° |
| 2026-05-09 00:47 | 37.85746 | 3.27885 | 38980 ft | 473 kts | 176° |
| 2026-05-09 00:48 | 37.79326 | 3.29671 | 38974 ft | 473 kts | 177° |
| 2026-05-09 00:48 | 37.72902 | 3.31456 | 38977 ft | 473 kts | 176° |
| 2026-05-09 00:49 | 37.66446 | 3.33248 | 38973 ft | 474 kts | 176° |
| 2026-05-09 00:49 | 37.60023 | 3.35028 | 38975 ft | 473 kts | 176° |
| 2026-05-09 00:50 | 37.53592 | 3.36807 | 38976 ft | 474 kts | 176° |
| 2026-05-09 00:50 | 37.47136 | 3.38591 | 38967 ft | 472 kts | 176° |
| 2026-05-09 00:51 | 37.40715 | 3.40360 | 38959 ft | 474 kts | 176° |
| 2026-05-09 00:51 | 37.34306 | 3.42124 | 38959 ft | 474 kts | 176° |
| 2026-05-09 00:52 | 37.27835 | 3.43901 | 38959 ft | 475 kts | 176° |
| 2026-05-09 00:52 | 37.21380 | 3.45672 | 38949 ft | 474 kts | 176° |
| 2026-05-09 00:53 | 37.14962 | 3.47429 | 38956 ft | 474 kts | 176° |
| 2026-05-09 00:53 | 37.08527 | 3.49188 | 38946 ft | 474 kts | 176° |
| 2026-05-09 00:54 | 37.02042 | 3.50957 | 38945 ft | 474 kts | 176° |
| 2026-05-09 00:54 | 36.95582 | 3.52716 | 38946 ft | 475 kts | 176° |
| 2026-05-09 00:55 | 36.89140 | 3.54468 | 38953 ft | 474 kts | 176° |
| 2026-05-09 00:55 | 36.82635 | 3.56233 | 38953 ft | 475 kts | 176° |
| 2026-05-09 00:56 | 36.76184 | 3.58533 | 38965 ft | 484 kts | 168° |
| 2026-05-09 00:56 | 36.69865 | 3.61357 | 38961 ft | 484 kts | 168° |
| 2026-05-09 00:57 | 36.63508 | 3.64193 | 38967 ft | 485 kts | 168° |
| 2026-05-09 00:57 | 36.57092 | 3.67047 | 38962 ft | 485 kts | 169° |
| 2026-05-09 00:58 | 36.50755 | 3.69857 | 38974 ft | 485 kts | 169° |
| 2026-05-09 00:58 | 36.44363 | 3.72687 | 38982 ft | 484 kts | 169° |
| 2026-05-09 00:59 | 36.38026 | 3.75487 | 38996 ft | 484 kts | 169° |
| 2026-05-09 00:59 | 36.31643 | 3.78283 | 39008 ft | 484 kts | 169° |
| 2026-05-09 01:00 | 36.25291 | 3.81048 | 39022 ft | 484 kts | 169° |
| 2026-05-09 01:00 | 36.18926 | 3.83815 | 39030 ft | 485 kts | 168° |
| 2026-05-09 01:01 | 36.12542 | 3.86585 | 39038 ft | 485 kts | 168° |
| 2026-05-09 01:01 | 36.06147 | 3.89357 | 39048 ft | 484 kts | 168° |
| 2026-05-09 01:02 | 35.99809 | 3.92099 | 39064 ft | 484 kts | 168° |
| 2026-05-09 01:02 | 35.93399 | 3.94867 | 39063 ft | 485 kts | 168° |
| 2026-05-09 01:03 | 35.87039 | 3.97609 | 39062 ft | 484 kts | 168° |
| 2026-05-09 01:03 | 35.80652 | 4.00357 | 39042 ft | 486 kts | 168° |
| 2026-05-09 01:04 | 35.74257 | 4.03105 | 39025 ft | 487 kts | 168° |
| 2026-05-09 01:04 | 35.67818 | 4.05867 | 39030 ft | 487 kts | 168° |
| 2026-05-09 01:05 | 35.61414 | 4.08635 | 39029 ft | 488 kts | 168° |
| 2026-05-09 01:06 | 35.51816 | 4.12801 | 39030 ft | 489 kts | 168° |
| 2026-05-09 01:06 | 35.45363 | 4.15594 | 39026 ft | 489 kts | 168° |
| 2026-05-09 01:07 | 35.38935 | 4.18370 | 39026 ft | 490 kts | 168° |
| 2026-05-09 01:07 | 35.32361 | 4.20117 | 39021 ft | 473 kts | 184° |
| 2026-05-09 01:08 | 35.25925 | 4.19735 | 39033 ft | 462 kts | 193° |
| 2026-05-09 01:08 | 35.19510 | 4.18781 | 39041 ft | 463 kts | 194° |
| 2026-05-09 01:09 | 35.13079 | 4.17821 | 39070 ft | 463 kts | 194° |
| 2026-05-09 01:09 | 35.06646 | 4.16861 | 39091 ft | 464 kts | 194° |
| 2026-05-09 01:10 | 35.00218 | 4.15903 | 39126 ft | 465 kts | 194° |
| 2026-05-09 01:10 | 34.93788 | 4.14946 | 39119 ft | 465 kts | 194° |
| 2026-05-09 01:11 | 34.87348 | 4.13990 | 39103 ft | 465 kts | 194° |
| 2026-05-09 01:11 | 34.80914 | 4.13035 | 39090 ft | 466 kts | 194° |
| 2026-05-09 01:12 | 34.74455 | 4.12078 | 39075 ft | 466 kts | 194° |
| 2026-05-09 01:12 | 34.68034 | 4.11129 | 39064 ft | 466 kts | 194° |
| 2026-05-09 01:13 | 34.61558 | 4.10172 | 39068 ft | 466 kts | 194° |
| 2026-05-09 01:13 | 34.55130 | 4.09224 | 39058 ft | 466 kts | 194° |
| 2026-05-09 01:14 | 34.48650 | 4.08270 | 39059 ft | 466 kts | 194° |
| 2026-05-09 01:14 | 34.42214 | 4.07324 | 39048 ft | 468 kts | 194° |
| 2026-05-09 01:15 | 34.35724 | 4.06372 | 39025 ft | 467 kts | 194° |
| 2026-05-09 01:15 | 34.29258 | 4.05425 | 39016 ft | 468 kts | 194° |
| 2026-05-09 01:16 | 34.22804 | 4.04480 | 39004 ft | 468 kts | 194° |
| 2026-05-09 01:16 | 34.16298 | 4.03530 | 38983 ft | 469 kts | 194° |
| 2026-05-09 01:17 | 34.06587 | 4.02110 | 38989 ft | 467 kts | 194° |
| 2026-05-09 01:17 | 34.00082 | 4.01148 | 38990 ft | 468 kts | 194° |
| 2026-05-09 01:18 | 33.93603 | 4.00191 | 38985 ft | 468 kts | 194° |
| 2026-05-09 01:18 | 33.87143 | 3.99239 | 38999 ft | 469 kts | 194° |
| 2026-05-09 01:19 | 33.80644 | 3.98283 | 38997 ft | 469 kts | 194° |
| 2026-05-09 01:19 | 33.74132 | 3.97327 | 39004 ft | 469 kts | 194° |
| 2026-05-09 01:20 | 33.67650 | 3.96377 | 39004 ft | 468 kts | 194° |
| 2026-05-09 01:20 | 33.61164 | 3.95427 | 39003 ft | 468 kts | 194° |
| 2026-05-09 01:21 | 33.54703 | 3.94482 | 39000 ft | 470 kts | 194° |
| 2026-05-09 01:21 | 33.48183 | 3.93531 | 39000 ft | 469 kts | 194° |
| 2026-05-09 01:22 | 33.41712 | 3.92588 | 38994 ft | 470 kts | 194° |
| 2026-05-09 01:22 | 33.35170 | 3.91635 | 38992 ft | 471 kts | 194° |
| 2026-05-09 01:23 | 33.28687 | 3.90694 | 38987 ft | 470 kts | 194° |
| 2026-05-09 01:23 | 33.22167 | 3.89748 | 38981 ft | 470 kts | 194° |
| 2026-05-09 01:24 | 33.15705 | 3.88812 | 38979 ft | 470 kts | 194° |
| 2026-05-09 01:24 | 33.09170 | 3.87867 | 38975 ft | 471 kts | 194° |
| 2026-05-09 01:25 | 33.02652 | 3.86926 | 38972 ft | 469 kts | 194° |
| 2026-05-09 01:25 | 32.96167 | 3.85984 | 38966 ft | 471 kts | 194° |
| 2026-05-09 01:26 | 32.89636 | 3.85037 | 38967 ft | 470 kts | 194° |
| 2026-05-09 01:26 | 32.83106 | 3.84091 | 38968 ft | 470 kts | 194° |
| 2026-05-09 01:27 | 32.76587 | 3.83149 | 38967 ft | 471 kts | 194° |
| 2026-05-09 01:27 | 32.70103 | 3.82212 | 38963 ft | 471 kts | 194° |
| 2026-05-09 01:28 | 32.63593 | 3.81274 | 38963 ft | 470 kts | 194° |
| 2026-05-09 01:28 | 32.57071 | 3.80335 | 38962 ft | 471 kts | 194° |
| 2026-05-09 01:29 | 32.50536 | 3.79396 | 38959 ft | 472 kts | 194° |
| 2026-05-09 01:29 | 32.44021 | 3.78461 | 38953 ft | 471 kts | 194° |
| 2026-05-09 01:30 | 32.37637 | 3.76848 | 38949 ft | 459 kts | 206° |
| 2026-05-09 01:30 | 32.31810 | 3.73966 | 38949 ft | 455 kts | 210° |
| 2026-05-09 01:31 | 32.25980 | 3.70994 | 38948 ft | 456 kts | 210° |
| 2026-05-09 01:31 | 32.20168 | 3.68037 | 38948 ft | 455 kts | 210° |
| 2026-05-09 01:32 | 32.14333 | 3.65074 | 38954 ft | 456 kts | 210° |
| 2026-05-09 01:32 | 32.08501 | 3.62116 | 38958 ft | 456 kts | 210° |
| 2026-05-09 01:33 | 32.02627 | 3.59143 | 38954 ft | 455 kts | 210° |
| 2026-05-09 01:33 | 31.96841 | 3.56219 | 38953 ft | 455 kts | 210° |
| 2026-05-09 01:34 | 31.90971 | 3.53256 | 38949 ft | 456 kts | 210° |
| 2026-05-09 01:34 | 31.85137 | 3.50315 | 38955 ft | 456 kts | 210° |
| 2026-05-09 01:35 | 31.79316 | 3.47385 | 38952 ft | 456 kts | 210° |
| 2026-05-09 01:35 | 31.73482 | 3.44453 | 38952 ft | 455 kts | 210° |
| 2026-05-09 01:36 | 31.67646 | 3.41523 | 38955 ft | 456 kts | 210° |
| 2026-05-09 01:36 | 31.61808 | 3.38597 | 38960 ft | 456 kts | 210° |
| 2026-05-09 01:37 | 31.55936 | 3.35657 | 38964 ft | 456 kts | 210° |
| 2026-05-09 01:37 | 31.50091 | 3.32735 | 38978 ft | 456 kts | 209° |
| 2026-05-09 01:38 | 31.44267 | 3.29828 | 38976 ft | 455 kts | 209° |
| 2026-05-09 01:38 | 31.38418 | 3.26912 | 38974 ft | 456 kts | 209° |
| 2026-05-09 01:39 | 31.32551 | 3.23991 | 38961 ft | 456 kts | 209° |
| 2026-05-09 01:39 | 31.26739 | 3.21101 | 38949 ft | 455 kts | 209° |
| 2026-05-09 01:40 | 31.20874 | 3.18189 | 38951 ft | 456 kts | 209° |
| 2026-05-09 01:40 | 31.15047 | 3.15300 | 38946 ft | 455 kts | 209° |
| 2026-05-09 01:41 | 31.09166 | 3.12387 | 38945 ft | 457 kts | 209° |
| 2026-05-09 01:41 | 31.03309 | 3.09491 | 38953 ft | 455 kts | 209° |
| 2026-05-09 01:42 | 30.97482 | 3.06613 | 38957 ft | 456 kts | 209° |
| 2026-05-09 01:42 | 30.91628 | 3.03726 | 38953 ft | 457 kts | 209° |
| 2026-05-09 01:43 | 30.85729 | 3.00821 | 38966 ft | 455 kts | 209° |
| 2026-05-09 01:43 | 30.79897 | 2.97952 | 38957 ft | 455 kts | 209° |
| 2026-05-09 01:44 | 30.74047 | 2.95078 | 38953 ft | 456 kts | 210° |
| 2026-05-09 01:44 | 30.68206 | 2.92213 | 38946 ft | 456 kts | 210° |
| 2026-05-09 01:45 | 30.62346 | 2.89342 | 38936 ft | 455 kts | 209° |
| 2026-05-09 01:45 | 30.56385 | 2.86679 | 38930 ft | 462 kts | 202° |
| 2026-05-09 01:46 | 30.49927 | 2.85509 | 38937 ft | 473 kts | 193° |
| 2026-05-09 01:46 | 30.43334 | 2.84772 | 38937 ft | 473 kts | 193° |
| 2026-05-09 01:47 | 30.36744 | 2.84040 | 38952 ft | 473 kts | 193° |
| 2026-05-09 01:47 | 30.30196 | 2.83314 | 38959 ft | 472 kts | 193° |
| 2026-05-09 01:48 | 30.23619 | 2.82586 | 38958 ft | 472 kts | 193° |
| 2026-05-09 01:48 | 30.17026 | 2.81855 | 38963 ft | 474 kts | 193° |
| 2026-05-09 01:49 | 30.10488 | 2.81134 | 38962 ft | 472 kts | 193° |
| 2026-05-09 01:49 | 30.03890 | 2.80405 | 38954 ft | 474 kts | 193° |
| 2026-05-09 01:50 | 29.97310 | 2.79681 | 38968 ft | 472 kts | 193° |
| 2026-05-09 01:50 | 29.90759 | 2.78960 | 38966 ft | 473 kts | 193° |
| 2026-05-09 01:51 | 29.84170 | 2.78235 | 38971 ft | 474 kts | 193° |
| 2026-05-09 01:51 | 29.77588 | 2.77513 | 38974 ft | 474 kts | 193° |
| 2026-05-09 01:52 | 29.71016 | 2.76793 | 38979 ft | 474 kts | 193° |
| 2026-05-09 01:52 | 29.64413 | 2.76070 | 38980 ft | 475 kts | 193° |
| 2026-05-09 01:53 | 29.57803 | 2.75347 | 38979 ft | 475 kts | 193° |
| 2026-05-09 01:53 | 29.51217 | 2.74628 | 38987 ft | 475 kts | 193° |
| 2026-05-09 01:54 | 29.44608 | 2.73908 | 38987 ft | 476 kts | 193° |
| 2026-05-09 01:54 | 29.38004 | 2.73189 | 38990 ft | 476 kts | 193° |
| 2026-05-09 01:55 | 29.31393 | 2.72470 | 38995 ft | 477 kts | 193° |
| 2026-05-09 01:55 | 29.24750 | 2.71748 | 39007 ft | 478 kts | 193° |
| 2026-05-09 01:56 | 29.18090 | 2.71026 | 39004 ft | 477 kts | 193° |
| 2026-05-09 01:56 | 29.11451 | 2.70307 | 39007 ft | 479 kts | 193° |
| 2026-05-09 01:57 | 29.04811 | 2.69589 | 39007 ft | 478 kts | 193° |
| 2026-05-09 01:57 | 28.98157 | 2.68870 | 39011 ft | 478 kts | 193° |
| 2026-05-09 01:58 | 28.91509 | 2.68153 | 39014 ft | 478 kts | 193° |
| 2026-05-09 01:58 | 28.84876 | 2.67437 | 39020 ft | 480 kts | 193° |
| 2026-05-09 01:59 | 28.78178 | 2.66716 | 39020 ft | 481 kts | 193° |
| 2026-05-09 01:59 | 28.71538 | 2.66003 | 39026 ft | 480 kts | 193° |
| 2026-05-09 02:00 | 28.64849 | 2.65285 | 39038 ft | 482 kts | 193° |
| 2026-05-09 02:00 | 28.58141 | 2.64566 | 39035 ft | 480 kts | 193° |
| 2026-05-09 02:01 | 28.51469 | 2.63852 | 39038 ft | 481 kts | 193° |
| 2026-05-09 02:01 | 28.44831 | 2.63136 | 39044 ft | 481 kts | 193° |
| 2026-05-09 02:02 | 28.38112 | 2.62407 | 39046 ft | 482 kts | 193° |
| 2026-05-09 02:02 | 28.31465 | 2.61688 | 39052 ft | 481 kts | 192° |
| 2026-05-09 02:03 | 28.24761 | 2.60963 | 39061 ft | 482 kts | 192° |
| 2026-05-09 02:03 | 28.18053 | 2.60239 | 39061 ft | 483 kts | 193° |
| 2026-05-09 02:04 | 28.11359 | 2.59518 | 39050 ft | 483 kts | 193° |
| 2026-05-09 02:04 | 28.04618 | 2.58792 | 39048 ft | 482 kts | 192° |
| 2026-05-09 02:05 | 27.97920 | 2.58072 | 39044 ft | 483 kts | 193° |
| 2026-05-09 02:05 | 27.91226 | 2.57353 | 39036 ft | 484 kts | 193° |
| 2026-05-09 02:06 | 27.84498 | 2.56632 | 39034 ft | 483 kts | 192° |
| 2026-05-09 02:07 | 27.74424 | 2.55554 | 39023 ft | 483 kts | 192° |
| 2026-05-09 02:07 | 27.67695 | 2.54834 | 39018 ft | 485 kts | 193° |
| 2026-05-09 02:08 | 27.61005 | 2.54120 | 39008 ft | 484 kts | 193° |
| 2026-05-09 02:08 | 27.54263 | 2.53401 | 39005 ft | 485 kts | 192° |
| 2026-05-09 02:09 | 27.47486 | 2.52679 | 38993 ft | 484 kts | 192° |
| 2026-05-09 02:09 | 27.40752 | 2.51963 | 38972 ft | 485 kts | 192° |
| 2026-05-09 02:10 | 27.34010 | 2.51247 | 38961 ft | 485 kts | 192° |
| 2026-05-09 02:10 | 27.27282 | 2.50533 | 38957 ft | 485 kts | 192° |
| 2026-05-09 02:11 | 27.20653 | 2.49363 | 38947 ft | 480 kts | 198° |
| 2026-05-09 02:11 | 27.14108 | 2.47874 | 38946 ft | 481 kts | 198° |
| 2026-05-09 02:12 | 27.07519 | 2.46380 | 38949 ft | 479 kts | 198° |
| 2026-05-09 02:12 | 27.00969 | 2.44897 | 38949 ft | 481 kts | 198° |
| 2026-05-09 02:13 | 26.94414 | 2.43418 | 38947 ft | 481 kts | 198° |
| 2026-05-09 02:13 | 26.87824 | 2.41933 | 38948 ft | 480 kts | 198° |
| 2026-05-09 02:14 | 26.81252 | 2.40453 | 38941 ft | 479 kts | 198° |
| 2026-05-09 02:14 | 26.74716 | 2.38983 | 38948 ft | 480 kts | 198° |
| 2026-05-09 02:15 | 26.68126 | 2.37503 | 38944 ft | 482 kts | 198° |
| 2026-05-09 02:15 | 26.61534 | 2.36025 | 38938 ft | 481 kts | 198° |
| 2026-05-09 02:16 | 26.54927 | 2.34545 | 38953 ft | 482 kts | 198° |
| 2026-05-09 02:16 | 26.48357 | 2.33075 | 38945 ft | 483 kts | 198° |
| 2026-05-09 02:17 | 26.41761 | 2.31602 | 38943 ft | 481 kts | 198° |
| 2026-05-09 02:17 | 26.35178 | 2.30132 | 38940 ft | 481 kts | 198° |
| 2026-05-09 02:18 | 26.28562 | 2.28657 | 38943 ft | 483 kts | 198° |
| 2026-05-09 02:18 | 26.21958 | 2.27187 | 38940 ft | 482 kts | 198° |
| 2026-05-09 02:19 | 26.15354 | 2.25718 | 38941 ft | 482 kts | 198° |
| 2026-05-09 02:19 | 26.08772 | 2.24256 | 38949 ft | 482 kts | 198° |
| 2026-05-09 02:20 | 26.02140 | 2.22784 | 38951 ft | 483 kts | 198° |
| 2026-05-09 02:20 | 25.95554 | 2.21325 | 38956 ft | 482 kts | 198° |
| 2026-05-09 02:21 | 25.88936 | 2.19859 | 38956 ft | 483 kts | 198° |
| 2026-05-09 02:21 | 25.82300 | 2.18391 | 38955 ft | 483 kts | 198° |
| 2026-05-09 02:22 | 25.75710 | 2.16936 | 38965 ft | 483 kts | 198° |
| 2026-05-09 02:22 | 25.69086 | 2.15474 | 38959 ft | 484 kts | 198° |
| 2026-05-09 02:23 | 25.62487 | 2.14020 | 38963 ft | 483 kts | 198° |
| 2026-05-09 02:23 | 25.55874 | 2.12564 | 38962 ft | 484 kts | 198° |
| 2026-05-09 02:24 | 25.49231 | 2.11104 | 38961 ft | 483 kts | 198° |
| 2026-05-09 02:24 | 25.42585 | 2.09644 | 38955 ft | 482 kts | 198° |
| 2026-05-09 02:25 | 25.36014 | 2.08202 | 38955 ft | 482 kts | 198° |
| 2026-05-09 02:25 | 25.29403 | 2.06753 | 38949 ft | 483 kts | 198° |
| 2026-05-09 02:26 | 25.22803 | 2.05308 | 38950 ft | 482 kts | 198° |
| 2026-05-09 02:26 | 25.16210 | 2.03866 | 38949 ft | 482 kts | 198° |
| 2026-05-09 02:27 | 25.09602 | 2.02423 | 38944 ft | 483 kts | 198° |
| 2026-05-09 02:27 | 25.02989 | 2.00980 | 38940 ft | 483 kts | 198° |
| 2026-05-09 02:28 | 24.96377 | 1.99540 | 38963 ft | 481 kts | 198° |
| 2026-05-09 02:28 | 24.89807 | 1.98109 | 38983 ft | 482 kts | 198° |
| 2026-05-09 02:29 | 24.83203 | 1.96673 | 39014 ft | 481 kts | 199° |
| 2026-05-09 02:29 | 24.76607 | 1.95240 | 39027 ft | 479 kts | 199° |
| 2026-05-09 02:30 | 24.70085 | 1.93825 | 39035 ft | 478 kts | 199° |
| 2026-05-09 02:30 | 24.63538 | 1.92406 | 39028 ft | 478 kts | 199° |
| 2026-05-09 02:31 | 24.56978 | 1.90984 | 39017 ft | 478 kts | 199° |
| 2026-05-09 02:31 | 24.50451 | 1.89574 | 39025 ft | 475 kts | 199° |
| 2026-05-09 02:32 | 24.43925 | 1.88163 | 39002 ft | 475 kts | 199° |
| 2026-05-09 02:32 | 24.37470 | 1.86770 | 39002 ft | 474 kts | 200° |
| 2026-05-09 02:33 | 24.30978 | 1.85370 | 39004 ft | 472 kts | 200° |
| 2026-05-09 02:33 | 24.24518 | 1.83978 | 39020 ft | 472 kts | 200° |
| 2026-05-09 02:34 | 24.18042 | 1.82585 | 39002 ft | 471 kts | 200° |
| 2026-05-09 02:34 | 24.11591 | 1.81198 | 39010 ft | 470 kts | 201° |
| 2026-05-09 02:35 | 24.05145 | 1.79814 | 39007 ft | 469 kts | 201° |
| 2026-05-09 02:35 | 23.98719 | 1.78434 | 39033 ft | 470 kts | 201° |
| 2026-05-09 02:36 | 23.92273 | 1.77053 | 39034 ft | 470 kts | 201° |
| 2026-05-09 02:36 | 23.85841 | 1.75676 | 39032 ft | 469 kts | 201° |
| 2026-05-09 02:37 | 23.79442 | 1.74307 | 39029 ft | 468 kts | 201° |
| 2026-05-09 02:37 | 23.72976 | 1.72925 | 39028 ft | 470 kts | 201° |
| 2026-05-09 02:38 | 23.66548 | 1.71552 | 39020 ft | 471 kts | 200° |
| 2026-05-09 02:38 | 23.60125 | 1.70184 | 39016 ft | 469 kts | 200° |
| 2026-05-09 02:39 | 23.53679 | 1.68811 | 39013 ft | 469 kts | 200° |
| 2026-05-09 02:39 | 23.47253 | 1.67444 | 39007 ft | 468 kts | 200° |
| 2026-05-09 02:40 | 23.40834 | 1.66128 | 39006 ft | 472 kts | 200° |
| 2026-05-09 02:40 | 23.34390 | 1.64822 | 39003 ft | 470 kts | 200° |
| 2026-05-09 02:41 | 23.27914 | 1.63507 | 38997 ft | 471 kts | 200° |
| 2026-05-09 02:41 | 23.21471 | 1.62200 | 38997 ft | 470 kts | 200° |
| 2026-05-09 02:42 | 23.14960 | 1.60879 | 38992 ft | 473 kts | 200° |
| 2026-05-09 02:42 | 23.08522 | 1.59576 | 38990 ft | 471 kts | 200° |
| 2026-05-09 02:43 | 23.02075 | 1.58271 | 38983 ft | 470 kts | 200° |
| 2026-05-09 02:43 | 22.95612 | 1.56963 | 38981 ft | 472 kts | 200° |
| 2026-05-09 02:44 | 22.89133 | 1.55655 | 38983 ft | 470 kts | 200° |
| 2026-05-09 02:44 | 22.82688 | 1.54354 | 38983 ft | 471 kts | 200° |
| 2026-05-09 02:45 | 22.76207 | 1.53046 | 38984 ft | 472 kts | 199° |
| 2026-05-09 02:45 | 22.69721 | 1.51740 | 38981 ft | 471 kts | 200° |
| 2026-05-09 02:46 | 22.63265 | 1.50439 | 38981 ft | 472 kts | 199° |
| 2026-05-09 02:46 | 22.56798 | 1.49139 | 38980 ft | 472 kts | 199° |
| 2026-05-09 02:47 | 22.50313 | 1.47836 | 38977 ft | 473 kts | 199° |
| 2026-05-09 02:47 | 22.43805 | 1.46531 | 38974 ft | 473 kts | 199° |
| 2026-05-09 02:48 | 22.37360 | 1.45238 | 38974 ft | 472 kts | 199° |
| 2026-05-09 02:48 | 22.30838 | 1.43932 | 38976 ft | 472 kts | 199° |
| 2026-05-09 02:49 | 22.24387 | 1.42641 | 38974 ft | 472 kts | 199° |
| 2026-05-09 02:49 | 22.17908 | 1.41345 | 38976 ft | 472 kts | 199° |
| 2026-05-09 02:50 | 22.11402 | 1.40046 | 38969 ft | 470 kts | 199° |
| 2026-05-09 02:50 | 22.04968 | 1.38762 | 38972 ft | 472 kts | 199° |
| 2026-05-09 02:51 | 21.98458 | 1.37463 | 38971 ft | 473 kts | 198° |
| 2026-05-09 02:51 | 21.91957 | 1.36168 | 38970 ft | 474 kts | 198° |
| 2026-05-09 02:52 | 21.85449 | 1.34873 | 38977 ft | 473 kts | 198° |
| 2026-05-09 02:52 | 21.78931 | 1.33577 | 38995 ft | 475 kts | 198° |
| 2026-05-09 02:53 | 21.72413 | 1.32282 | 38988 ft | 475 kts | 198° |
| 2026-05-09 02:53 | 21.65875 | 1.30984 | 38987 ft | 475 kts | 198° |
| 2026-05-09 02:54 | 21.59376 | 1.29696 | 38991 ft | 475 kts | 198° |
| 2026-05-09 02:54 | 21.52815 | 1.28396 | 38988 ft | 477 kts | 198° |
| 2026-05-09 02:55 | 21.46270 | 1.27101 | 38986 ft | 476 kts | 197° |
| 2026-05-09 02:55 | 21.39749 | 1.25812 | 38987 ft | 475 kts | 198° |
| 2026-05-09 02:56 | 21.33201 | 1.24517 | 38984 ft | 476 kts | 198° |
| 2026-05-09 02:56 | 21.26698 | 1.23234 | 38984 ft | 476 kts | 197° |
| 2026-05-09 02:57 | 21.20144 | 1.21942 | 38982 ft | 476 kts | 197° |
| 2026-05-09 02:57 | 21.13614 | 1.20655 | 38984 ft | 476 kts | 197° |
| 2026-05-09 02:58 | 21.07082 | 1.19369 | 38978 ft | 478 kts | 197° |
| 2026-05-09 02:58 | 21.00508 | 1.18076 | 38982 ft | 478 kts | 197° |
| 2026-05-09 02:59 | 20.93927 | 1.16783 | 38980 ft | 478 kts | 197° |
| 2026-05-09 02:59 | 20.87453 | 1.15200 | 38982 ft | 474 kts | 200° |
| 2026-05-09 03:00 | 20.81040 | 1.13460 | 38983 ft | 473 kts | 200° |
| 2026-05-09 03:00 | 20.74621 | 1.11738 | 38983 ft | 476 kts | 200° |
| 2026-05-09 03:01 | 20.68170 | 1.10020 | 38986 ft | 475 kts | 200° |
| 2026-05-09 03:01 | 20.61709 | 1.08307 | 38986 ft | 475 kts | 200° |
| 2026-05-09 03:02 | 20.55265 | 1.06602 | 38987 ft | 478 kts | 200° |
| 2026-05-09 03:02 | 20.48799 | 1.04896 | 38988 ft | 477 kts | 200° |
| 2026-05-09 03:03 | 20.42310 | 1.03186 | 38988 ft | 477 kts | 200° |
| 2026-05-09 03:03 | 20.35837 | 1.01481 | 38992 ft | 480 kts | 200° |
| 2026-05-09 03:04 | 20.29307 | 0.99764 | 38997 ft | 480 kts | 200° |
| 2026-05-09 03:04 | 20.22783 | 0.98056 | 38999 ft | 480 kts | 199° |
| 2026-05-09 03:05 | 20.16281 | 0.96377 | 38995 ft | 480 kts | 200° |
| 2026-05-09 03:05 | 20.09753 | 0.94692 | 38989 ft | 482 kts | 200° |
| 2026-05-09 03:06 | 20.03227 | 0.93008 | 38989 ft | 482 kts | 200° |
| 2026-05-09 03:06 | 19.96686 | 0.91322 | 38983 ft | 483 kts | 200° |
| 2026-05-09 03:07 | 19.90153 | 0.89639 | 38980 ft | 482 kts | 199° |
| 2026-05-09 03:07 | 19.83609 | 0.87954 | 38975 ft | 483 kts | 200° |
| 2026-05-09 03:08 | 19.77051 | 0.86268 | 38976 ft | 481 kts | 200° |
| 2026-05-09 03:08 | 19.70535 | 0.84593 | 38972 ft | 482 kts | 200° |
| 2026-05-09 03:09 | 19.63974 | 0.82908 | 38968 ft | 483 kts | 199° |
| 2026-05-09 03:09 | 19.57425 | 0.81227 | 38972 ft | 485 kts | 199° |
| 2026-05-09 03:10 | 19.50813 | 0.79532 | 38964 ft | 485 kts | 199° |
| 2026-05-09 03:10 | 19.44230 | 0.77846 | 38966 ft | 486 kts | 199° |
| 2026-05-09 03:11 | 19.37623 | 0.76155 | 38958 ft | 486 kts | 200° |
| 2026-05-09 03:11 | 19.31031 | 0.74470 | 38962 ft | 487 kts | 200° |
| 2026-05-09 03:12 | 19.24366 | 0.72767 | 38960 ft | 486 kts | 200° |
| 2026-05-09 03:12 | 19.17769 | 0.71083 | 38958 ft | 488 kts | 199° |
| 2026-05-09 03:13 | 19.07834 | 0.68549 | 38952 ft | 488 kts | 199° |
| 2026-05-09 03:13 | 19.01192 | 0.66857 | 38950 ft | 488 kts | 199° |
| 2026-05-09 03:14 | 18.94591 | 0.65176 | 38948 ft | 490 kts | 199° |
| 2026-05-09 03:14 | 18.87954 | 0.63489 | 38947 ft | 488 kts | 199° |
| 2026-05-09 03:15 | 18.81336 | 0.61807 | 38948 ft | 489 kts | 199° |
| 2026-05-09 03:15 | 18.74684 | 0.60117 | 38939 ft | 489 kts | 199° |
| 2026-05-09 03:16 | 18.68042 | 0.58432 | 38938 ft | 488 kts | 199° |
| 2026-05-09 03:16 | 18.61417 | 0.56752 | 38938 ft | 490 kts | 199° |
| 2026-05-09 03:17 | 18.54782 | 0.55072 | 38936 ft | 489 kts | 199° |
| 2026-05-09 03:17 | 18.48177 | 0.53400 | 38940 ft | 487 kts | 199° |
| 2026-05-09 03:18 | 18.41532 | 0.51719 | 38932 ft | 488 kts | 199° |
| 2026-05-09 03:18 | 18.34870 | 0.50036 | 38930 ft | 488 kts | 199° |
| 2026-05-09 03:19 | 18.28257 | 0.48366 | 38925 ft | 488 kts | 199° |
| 2026-05-09 03:19 | 18.21638 | 0.46696 | 38928 ft | 489 kts | 199° |
| 2026-05-09 03:20 | 18.14992 | 0.45020 | 38927 ft | 488 kts | 198° |
| 2026-05-09 03:20 | 18.08346 | 0.43346 | 38926 ft | 487 kts | 198° |
| 2026-05-09 03:21 | 18.01748 | 0.41685 | 38923 ft | 487 kts | 198° |
| 2026-05-09 03:21 | 17.95132 | 0.40021 | 38924 ft | 486 kts | 198° |
| 2026-05-09 03:22 | 17.88481 | 0.38349 | 38923 ft | 489 kts | 198° |
| 2026-05-09 03:22 | 17.81830 | 0.36678 | 38924 ft | 490 kts | 198° |
| 2026-05-09 03:23 | 17.75172 | 0.35008 | 38919 ft | 490 kts | 198° |
| 2026-05-09 03:23 | 17.68496 | 0.33333 | 38931 ft | 492 kts | 198° |
| 2026-05-09 03:24 | 17.61839 | 0.31665 | 38930 ft | 493 kts | 198° |
| 2026-05-09 03:24 | 17.55133 | 0.29986 | 38926 ft | 493 kts | 198° |
| 2026-05-09 03:25 | 17.48454 | 0.28315 | 38919 ft | 493 kts | 198° |
| 2026-05-09 03:25 | 17.41740 | 0.26637 | 38918 ft | 494 kts | 198° |
| 2026-05-09 03:26 | 17.35035 | 0.24962 | 38913 ft | 495 kts | 198° |
| 2026-05-09 03:26 | 17.28306 | 0.23282 | 38915 ft | 495 kts | 197° |
| 2026-05-09 03:27 | 17.21561 | 0.21599 | 38916 ft | 497 kts | 197° |
| 2026-05-09 03:27 | 17.14852 | 0.19927 | 38916 ft | 496 kts | 197° |
| 2026-05-09 03:28 | 17.08101 | 0.18246 | 38915 ft | 496 kts | 197° |
| 2026-05-09 03:28 | 17.01351 | 0.16566 | 38910 ft | 498 kts | 197° |
| 2026-05-09 03:29 | 16.94592 | 0.14885 | 38913 ft | 497 kts | 197° |
| 2026-05-09 03:29 | 16.87813 | 0.13201 | 38910 ft | 497 kts | 197° |
| 2026-05-09 03:30 | 16.81052 | 0.11522 | 38906 ft | 496 kts | 197° |
| 2026-05-09 03:30 | 16.74345 | 0.09857 | 38906 ft | 496 kts | 197° |
| 2026-05-09 03:31 | 16.67628 | 0.08192 | 38901 ft | 495 kts | 197° |
| 2026-05-09 03:31 | 16.60898 | 0.06524 | 38898 ft | 494 kts | 197° |
| 2026-05-09 03:32 | 16.54134 | 0.04849 | 38890 ft | 494 kts | 197° |
| 2026-05-09 03:32 | 16.47442 | 0.03194 | 38886 ft | 493 kts | 197° |
| 2026-05-09 03:33 | 16.40736 | 0.01535 | 38881 ft | 493 kts | 197° |
| 2026-05-09 03:33 | 16.34055 | -0.00115 | 38874 ft | 492 kts | 197° |
| 2026-05-09 03:34 | 16.27325 | -0.01777 | 38872 ft | 493 kts | 196° |
| 2026-05-09 03:34 | 16.20508 | -0.02616 | 38879 ft | 498 kts | 183° |
| 2026-05-09 03:35 | 16.13510 | -0.02595 | 38882 ft | 499 kts | 183° |
| 2026-05-09 03:35 | 16.06570 | -0.02556 | 38880 ft | 498 kts | 182° |
| 2026-05-09 03:36 | 15.99611 | -0.02517 | 38884 ft | 497 kts | 182° |
| 2026-05-09 03:36 | 15.92657 | -0.02479 | 38887 ft | 497 kts | 182° |
| 2026-05-09 03:37 | 15.85705 | -0.02440 | 38887 ft | 496 kts | 182° |
| 2026-05-09 03:37 | 15.78793 | -0.02402 | 38887 ft | 496 kts | 182° |
| 2026-05-09 03:38 | 15.71862 | -0.02364 | 38886 ft | 495 kts | 182° |
| 2026-05-09 03:38 | 15.64981 | -0.02326 | 38883 ft | 495 kts | 182° |
| 2026-05-09 03:39 | 15.58061 | -0.02288 | 38880 ft | 494 kts | 182° |
| 2026-05-09 03:39 | 15.51150 | -0.02250 | 38877 ft | 495 kts | 182° |
| 2026-05-09 03:40 | 15.44261 | -0.02212 | 38876 ft | 494 kts | 182° |
| 2026-05-09 03:40 | 15.37365 | -0.02174 | 38874 ft | 493 kts | 182° |
| 2026-05-09 03:41 | 15.30442 | -0.02136 | 38875 ft | 494 kts | 182° |
| 2026-05-09 03:41 | 15.23538 | -0.02098 | 38872 ft | 493 kts | 182° |
| 2026-05-09 03:42 | 15.16659 | -0.02061 | 38873 ft | 493 kts | 182° |
| 2026-05-09 03:42 | 15.09780 | -0.02023 | 38875 ft | 492 kts | 182° |
| 2026-05-09 03:43 | 15.02911 | -0.01985 | 38878 ft | 491 kts | 182° |
| 2026-05-09 03:43 | 14.96042 | -0.01948 | 38880 ft | 492 kts | 182° |
| 2026-05-09 03:44 | 14.89185 | -0.01911 | 38881 ft | 492 kts | 182° |
| 2026-05-09 03:44 | 14.82275 | -0.01873 | 38885 ft | 493 kts | 182° |
| 2026-05-09 03:45 | 14.75401 | -0.01835 | 38883 ft | 493 kts | 182° |
| 2026-05-09 03:45 | 14.68487 | -0.01798 | 38881 ft | 494 kts | 182° |
| 2026-05-09 03:46 | 14.61625 | -0.01760 | 38885 ft | 494 kts | 182° |
| 2026-05-09 03:46 | 14.54717 | -0.01723 | 38888 ft | 495 kts | 182° |
| 2026-05-09 03:47 | 14.47766 | -0.01685 | 38889 ft | 495 kts | 182° |
| 2026-05-09 03:47 | 14.40851 | -0.01647 | 38889 ft | 496 kts | 182° |
| 2026-05-09 03:48 | 14.33949 | -0.01610 | 38889 ft | 496 kts | 182° |
| 2026-05-09 03:48 | 14.26996 | -0.01572 | 38890 ft | 496 kts | 182° |
| 2026-05-09 03:49 | 14.20110 | -0.01534 | 38890 ft | 497 kts | 181° |
| 2026-05-09 03:49 | 14.13121 | -0.01496 | 38890 ft | 497 kts | 182° |
| 2026-05-09 03:50 | 14.06195 | -0.01459 | 38890 ft | 497 kts | 182° |
| 2026-05-09 03:50 | 13.99264 | -0.01421 | 38894 ft | 498 kts | 181° |
| 2026-05-09 03:51 | 13.92305 | -0.01384 | 38895 ft | 498 kts | 181° |
| 2026-05-09 03:51 | 13.85351 | -0.01346 | 38891 ft | 498 kts | 181° |
| 2026-05-09 03:52 | 13.78385 | -0.01308 | 38893 ft | 498 kts | 181° |
| 2026-05-09 03:52 | 13.71422 | -0.01271 | 38896 ft | 498 kts | 181° |
| 2026-05-09 03:53 | 13.64447 | -0.01234 | 38895 ft | 498 kts | 181° |
| 2026-05-09 03:53 | 13.57519 | -0.01196 | 38891 ft | 498 kts | 181° |
| 2026-05-09 03:54 | 13.50557 | -0.01159 | 38892 ft | 499 kts | 181° |
| 2026-05-09 03:54 | 13.43578 | -0.01121 | 38893 ft | 499 kts | 181° |
| 2026-05-09 03:55 | 13.36624 | -0.01084 | 38889 ft | 498 kts | 181° |
| 2026-05-09 03:55 | 13.29621 | -0.01047 | 38893 ft | 499 kts | 181° |
| 2026-05-09 03:56 | 13.22688 | -0.01010 | 38891 ft | 499 kts | 181° |
| 2026-05-09 03:56 | 13.15695 | -0.00974 | 38894 ft | 499 kts | 181° |
| 2026-05-09 03:57 | 13.08714 | -0.00937 | 38898 ft | 499 kts | 181° |
| 2026-05-09 03:57 | 13.01745 | -0.00901 | 38896 ft | 499 kts | 181° |
| 2026-05-09 03:58 | 12.94751 | -0.00865 | 38894 ft | 500 kts | 181° |
| 2026-05-09 03:58 | 12.87801 | -0.00748 | 38892 ft | 501 kts | 176° |
| 2026-05-09 03:59 | 12.80979 | 0.00907 | 38897 ft | 505 kts | 159° |
| 2026-05-09 03:59 | 12.74869 | 0.04547 | 38903 ft | 508 kts | 143° |
| 2026-05-09 04:00 | 12.69303 | 0.09038 | 38904 ft | 509 kts | 142° |
| 2026-05-09 04:00 | 12.63751 | 0.13550 | 38904 ft | 509 kts | 142° |
| 2026-05-09 04:01 | 12.58197 | 0.18060 | 38906 ft | 509 kts | 142° |
| 2026-05-09 04:01 | 12.52643 | 0.22568 | 38909 ft | 509 kts | 142° |
| 2026-05-09 04:02 | 12.47076 | 0.27084 | 38915 ft | 508 kts | 142° |
| 2026-05-09 04:02 | 12.41501 | 0.31604 | 38915 ft | 509 kts | 142° |
| 2026-05-09 04:03 | 12.35944 | 0.36106 | 38915 ft | 509 kts | 142° |
| 2026-05-09 04:03 | 12.30393 | 0.40601 | 38922 ft | 509 kts | 142° |
| 2026-05-09 04:04 | 12.24841 | 0.45094 | 38917 ft | 509 kts | 142° |
| 2026-05-09 04:04 | 12.19260 | 0.49609 | 38919 ft | 507 kts | 141° |
| 2026-05-09 04:05 | 12.13722 | 0.54085 | 38920 ft | 507 kts | 141° |
| 2026-05-09 04:05 | 12.08152 | 0.58586 | 38921 ft | 507 kts | 141° |
| 2026-05-09 04:06 | 12.02624 | 0.63050 | 38924 ft | 507 kts | 141° |
| 2026-05-09 04:06 | 11.97060 | 0.67541 | 38919 ft | 507 kts | 142° |
| 2026-05-09 04:07 | 11.91531 | 0.72001 | 38913 ft | 506 kts | 142° |
| 2026-05-09 04:07 | 11.85990 | 0.76468 | 38908 ft | 505 kts | 142° |
| 2026-05-09 04:08 | 11.80458 | 0.80926 | 38905 ft | 506 kts | 141° |
| 2026-05-09 04:08 | 11.74882 | 0.85417 | 38903 ft | 505 kts | 141° |
| 2026-05-09 04:09 | 11.69336 | 0.89881 | 38901 ft | 506 kts | 141° |
| 2026-05-09 04:09 | 11.63783 | 0.94349 | 38903 ft | 506 kts | 141° |
| 2026-05-09 04:10 | 11.58230 | 0.98814 | 38903 ft | 505 kts | 141° |
| 2026-05-09 04:10 | 11.52699 | 1.03259 | 38903 ft | 505 kts | 141° |
| 2026-05-09 04:11 | 11.47179 | 1.07694 | 38910 ft | 504 kts | 141° |
| 2026-05-09 04:11 | 11.41671 | 1.12115 | 38903 ft | 504 kts | 141° |
| 2026-05-09 04:12 | 11.36151 | 1.16545 | 38902 ft | 503 kts | 141° |
| 2026-05-09 04:12 | 11.30630 | 1.20973 | 38896 ft | 503 kts | 141° |
| 2026-05-09 04:13 | 11.25121 | 1.25390 | 38900 ft | 503 kts | 141° |
| 2026-05-09 04:13 | 11.19599 | 1.29814 | 38901 ft | 502 kts | 141° |
| 2026-05-09 04:14 | 11.14078 | 1.34235 | 38903 ft | 502 kts | 141° |
| 2026-05-09 04:14 | 11.08590 | 1.38628 | 38912 ft | 502 kts | 141° |
| 2026-05-09 04:15 | 11.03083 | 1.43014 | 38921 ft | 501 kts | 143° |
| 2026-05-09 04:15 | 10.96895 | 1.46330 | 38923 ft | 502 kts | 160° |
| 2026-05-09 04:16 | 10.90188 | 1.48420 | 38940 ft | 502 kts | 163° |
| 2026-05-09 04:16 | 10.83438 | 1.50446 | 38950 ft | 501 kts | 163° |
| 2026-05-09 04:17 | 10.76743 | 1.52451 | 38956 ft | 501 kts | 163° |
| 2026-05-09 04:17 | 10.69993 | 1.54470 | 38967 ft | 501 kts | 163° |
| 2026-05-09 04:18 | 10.63279 | 1.56476 | 38972 ft | 500 kts | 163° |
| 2026-05-09 04:18 | 10.56601 | 1.58470 | 38969 ft | 500 kts | 163° |
| 2026-05-09 04:19 | 10.49875 | 1.60477 | 38971 ft | 500 kts | 163° |
| 2026-05-09 04:19 | 10.43182 | 1.62473 | 38971 ft | 500 kts | 163° |
| 2026-05-09 04:20 | 10.36507 | 1.64463 | 38975 ft | 499 kts | 163° |
| 2026-05-09 04:20 | 10.29800 | 1.66461 | 38979 ft | 500 kts | 163° |
| 2026-05-09 04:21 | 10.23077 | 1.68464 | 38978 ft | 499 kts | 163° |
| 2026-05-09 04:22 | 10.13067 | 1.71443 | 38981 ft | 498 kts | 163° |
| 2026-05-09 04:22 | 10.06363 | 1.73438 | 38976 ft | 499 kts | 163° |
| 2026-05-09 04:23 | 9.99683 | 1.75424 | 38975 ft | 498 kts | 163° |
| 2026-05-09 04:23 | 9.93006 | 1.77408 | 38967 ft | 497 kts | 163° |
| 2026-05-09 04:24 | 9.86320 | 1.79395 | 38975 ft | 497 kts | 163° |
| 2026-05-09 04:24 | 9.79681 | 1.81367 | 38982 ft | 497 kts | 163° |
| 2026-05-09 04:25 | 9.73006 | 1.83348 | 38980 ft | 497 kts | 163° |
| 2026-05-09 04:25 | 9.66320 | 1.85332 | 38986 ft | 496 kts | 163° |
| 2026-05-09 04:26 | 9.59664 | 1.87306 | 38983 ft | 497 kts | 163° |
| 2026-05-09 04:26 | 9.53024 | 1.89275 | 38980 ft | 495 kts | 163° |
| 2026-05-09 04:27 | 9.46356 | 1.91251 | 38989 ft | 497 kts | 163° |
| 2026-05-09 04:27 | 9.39659 | 1.93140 | 38978 ft | 495 kts | 164° |
| 2026-05-09 04:28 | 9.32965 | 1.94999 | 38978 ft | 497 kts | 164° |
| 2026-05-09 04:28 | 9.26327 | 1.96845 | 38983 ft | 495 kts | 164° |
| 2026-05-09 04:29 | 9.19632 | 1.98708 | 38985 ft | 496 kts | 164° |
| 2026-05-09 04:29 | 9.12977 | 2.00560 | 38984 ft | 495 kts | 163° |
| 2026-05-09 04:30 | 9.06295 | 2.02420 | 38987 ft | 495 kts | 164° |
| 2026-05-09 04:30 | 8.99645 | 2.04271 | 38987 ft | 494 kts | 163° |
| 2026-05-09 04:31 | 8.92988 | 2.06123 | 38983 ft | 495 kts | 163° |
| 2026-05-09 04:31 | 8.86309 | 2.07981 | 38988 ft | 495 kts | 163° |
| 2026-05-09 04:32 | 8.79643 | 2.09834 | 38993 ft | 494 kts | 163° |
| 2026-05-09 04:32 | 8.72946 | 2.11695 | 38999 ft | 495 kts | 163° |
| 2026-05-09 04:33 | 8.66291 | 2.13545 | 38992 ft | 494 kts | 163° |
| 2026-05-09 04:33 | 8.59623 | 2.15396 | 38991 ft | 495 kts | 163° |
| 2026-05-09 04:34 | 8.52973 | 2.17243 | 38985 ft | 496 kts | 163° |
| 2026-05-09 04:34 | 8.46254 | 2.19108 | 38981 ft | 496 kts | 162° |
| 2026-05-09 04:35 | 8.39598 | 2.20954 | 38976 ft | 497 kts | 162° |
| 2026-05-09 04:35 | 8.32915 | 2.22808 | 38979 ft | 497 kts | 162° |
| 2026-05-09 04:36 | 8.26182 | 2.24675 | 38978 ft | 499 kts | 162° |
| 2026-05-09 04:36 | 8.19466 | 2.26536 | 38976 ft | 499 kts | 162° |
| 2026-05-09 04:37 | 8.12730 | 2.28402 | 38975 ft | 500 kts | 162° |
| 2026-05-09 04:37 | 8.05965 | 2.30276 | 38978 ft | 502 kts | 162° |
| 2026-05-09 04:38 | 7.99208 | 2.32146 | 38975 ft | 503 kts | 162° |
| 2026-05-09 04:38 | 7.92434 | 2.34021 | 38977 ft | 503 kts | 162° |
| 2026-05-09 04:39 | 7.85906 | 2.36619 | 38965 ft | 499 kts | 147° |
| 2026-05-09 04:39 | 7.80348 | 2.40791 | 38959 ft | 496 kts | 137° |
| 2026-05-09 04:40 | 7.75041 | 2.45290 | 38955 ft | 497 kts | 137° |
| 2026-05-09 04:40 | 7.69743 | 2.49786 | 38957 ft | 496 kts | 137° |
| 2026-05-09 04:41 | 7.64456 | 2.54272 | 38958 ft | 498 kts | 137° |
| 2026-05-09 04:41 | 7.59118 | 2.58799 | 38960 ft | 500 kts | 137° |
| 2026-05-09 04:42 | 7.53813 | 2.63296 | 38961 ft | 501 kts | 137° |
| 2026-05-09 04:42 | 7.48450 | 2.67842 | 38971 ft | 502 kts | 137° |
| 2026-05-09 04:43 | 7.43094 | 2.72380 | 38966 ft | 503 kts | 137° |
| 2026-05-09 04:43 | 7.37674 | 2.76956 | 38963 ft | 504 kts | 138° |
| 2026-05-09 04:44 | 7.32281 | 2.81457 | 38960 ft | 505 kts | 138° |
| 2026-05-09 04:44 | 7.26858 | 2.85983 | 38957 ft | 505 kts | 138° |
| 2026-05-09 04:45 | 7.21421 | 2.90520 | 38958 ft | 506 kts | 138° |
| 2026-05-09 04:45 | 7.15974 | 2.95066 | 38957 ft | 507 kts | 138° |
| 2026-05-09 04:46 | 7.10535 | 2.99603 | 38953 ft | 508 kts | 138° |
| 2026-05-09 04:46 | 7.05103 | 3.04134 | 38959 ft | 509 kts | 138° |
| 2026-05-09 04:47 | 6.99631 | 3.08696 | 38959 ft | 508 kts | 138° |
| 2026-05-09 04:47 | 6.94174 | 3.13244 | 38956 ft | 510 kts | 138° |
| 2026-05-09 04:48 | 6.88680 | 3.17823 | 38949 ft | 511 kts | 138° |
| 2026-05-09 04:48 | 6.83193 | 3.22394 | 38951 ft | 510 kts | 138° |
| 2026-05-09 04:49 | 6.77700 | 3.26968 | 38943 ft | 511 kts | 138° |
| 2026-05-09 04:49 | 6.72205 | 3.31543 | 38947 ft | 511 kts | 138° |
| 2026-05-09 04:50 | 6.66934 | 3.36300 | 38948 ft | 511 kts | 133° |
| 2026-05-09 04:50 | 6.61869 | 3.41373 | 38937 ft | 510 kts | 133° |
| 2026-05-09 04:51 | 6.56815 | 3.46401 | 38942 ft | 510 kts | 133° |
| 2026-05-09 04:51 | 6.51741 | 3.51422 | 38937 ft | 511 kts | 133° |
| 2026-05-09 04:52 | 6.46681 | 3.56415 | 38931 ft | 511 kts | 133° |
| 2026-05-09 04:52 | 6.41603 | 3.61417 | 38929 ft | 511 kts | 133° |
| 2026-05-09 04:53 | 6.36504 | 3.66433 | 38930 ft | 512 kts | 134° |
| 2026-05-09 04:53 | 6.31374 | 3.71476 | 38927 ft | 512 kts | 134° |
| 2026-05-09 04:54 | 6.26284 | 3.76476 | 38923 ft | 511 kts | 134° |
| 2026-05-09 04:54 | 6.21190 | 3.81480 | 38919 ft | 511 kts | 133° |
| 2026-05-09 04:55 | 6.16108 | 3.86469 | 38918 ft | 511 kts | 133° |
| 2026-05-09 04:55 | 6.11035 | 3.91447 | 38914 ft | 511 kts | 133° |
| 2026-05-09 04:56 | 6.05942 | 3.96444 | 38913 ft | 510 kts | 133° |
| 2026-05-09 04:56 | 6.00861 | 4.01427 | 38915 ft | 511 kts | 133° |
| 2026-05-09 04:57 | 5.95750 | 4.06438 | 38915 ft | 510 kts | 133° |
| 2026-05-09 04:57 | 5.90696 | 4.11404 | 38914 ft | 509 kts | 133° |
| 2026-05-09 04:58 | 5.85641 | 4.16400 | 38906 ft | 509 kts | 133° |
| 2026-05-09 04:58 | 5.80565 | 4.21415 | 38908 ft | 508 kts | 133° |
| 2026-05-09 04:59 | 5.75532 | 4.26384 | 38912 ft | 507 kts | 133° |
| 2026-05-09 04:59 | 5.70504 | 4.31348 | 38909 ft | 507 kts | 133° |
| 2026-05-09 05:00 | 5.65445 | 4.36340 | 38913 ft | 506 kts | 133° |
| 2026-05-09 05:00 | 5.60422 | 4.41295 | 38913 ft | 506 kts | 133° |
| 2026-05-09 05:01 | 5.55403 | 4.46244 | 38910 ft | 506 kts | 133° |
| 2026-05-09 05:01 | 5.50373 | 4.51204 | 38913 ft | 505 kts | 133° |
| 2026-05-09 05:02 | 5.45378 | 4.56127 | 38914 ft | 504 kts | 133° |
| 2026-05-09 05:02 | 5.40354 | 4.61078 | 38913 ft | 504 kts | 133° |
| 2026-05-09 05:03 | 5.35350 | 4.66008 | 38916 ft | 504 kts | 133° |
| 2026-05-09 05:03 | 5.30351 | 4.70932 | 38916 ft | 503 kts | 133° |
| 2026-05-09 05:04 | 5.25324 | 4.75882 | 38915 ft | 503 kts | 133° |
| 2026-05-09 05:04 | 5.20345 | 4.80784 | 38916 ft | 502 kts | 133° |
| 2026-05-09 05:05 | 5.15358 | 4.85693 | 38914 ft | 502 kts | 133° |
| 2026-05-09 05:05 | 5.10357 | 4.90614 | 38914 ft | 501 kts | 133° |
| 2026-05-09 05:06 | 5.05379 | 4.95511 | 38912 ft | 501 kts | 133° |
| 2026-05-09 05:06 | 5.00411 | 5.00397 | 38915 ft | 500 kts | 133° |
| 2026-05-09 05:07 | 4.95414 | 5.05311 | 38911 ft | 500 kts | 133° |
| 2026-05-09 05:07 | 4.90449 | 5.10193 | 38912 ft | 501 kts | 133° |
| 2026-05-09 05:08 | 4.85462 | 5.15095 | 38902 ft | 501 kts | 133° |
| 2026-05-09 05:08 | 4.80479 | 5.19992 | 38909 ft | 501 kts | 133° |
| 2026-05-09 05:09 | 4.75500 | 5.24858 | 38913 ft | 500 kts | 133° |
| 2026-05-09 05:09 | 4.70500 | 5.29738 | 38909 ft | 501 kts | 133° |
| 2026-05-09 05:10 | 4.65513 | 5.34605 | 38912 ft | 501 kts | 133° |
| 2026-05-09 05:10 | 4.60506 | 5.39492 | 38910 ft | 500 kts | 133° |
| 2026-05-09 05:11 | 4.55512 | 5.44365 | 38913 ft | 501 kts | 133° |
| 2026-05-09 05:11 | 4.50526 | 5.49229 | 38912 ft | 501 kts | 133° |
| 2026-05-09 05:12 | 4.45531 | 5.54101 | 38914 ft | 501 kts | 133° |
| 2026-05-09 05:12 | 4.40541 | 5.58967 | 38914 ft | 500 kts | 133° |
| 2026-05-09 05:13 | 4.35527 | 5.63855 | 38916 ft | 501 kts | 133° |
| 2026-05-09 05:13 | 4.30541 | 5.68716 | 38920 ft | 500 kts | 133° |
| 2026-05-09 05:14 | 4.25553 | 5.73577 | 38917 ft | 500 kts | 133° |
| 2026-05-09 05:14 | 4.20554 | 5.78447 | 38919 ft | 500 kts | 133° |
| 2026-05-09 05:15 | 4.15586 | 5.83286 | 38918 ft | 499 kts | 133° |
| 2026-05-09 05:15 | 4.10579 | 5.88164 | 38918 ft | 500 kts | 133° |
| 2026-05-09 05:16 | 4.05607 | 5.93005 | 38915 ft | 498 kts | 133° |
| 2026-05-09 05:16 | 4.00626 | 5.97854 | 38913 ft | 498 kts | 133° |
| 2026-05-09 05:17 | 3.95649 | 6.02699 | 38910 ft | 498 kts | 133° |
| 2026-05-09 05:17 | 3.90686 | 6.07530 | 38909 ft | 498 kts | 133° |
| 2026-05-09 05:18 | 3.85687 | 6.12395 | 38906 ft | 499 kts | 133° |
| 2026-05-09 05:18 | 3.80715 | 6.17222 | 38908 ft | 500 kts | 133° |
| 2026-05-09 05:19 | 3.75694 | 6.22079 | 38907 ft | 499 kts | 133° |
| 2026-05-09 05:19 | 3.70713 | 6.26897 | 38904 ft | 500 kts | 133° |
| 2026-05-09 05:20 | 3.65697 | 6.31750 | 38907 ft | 500 kts | 133° |
| 2026-05-09 05:20 | 3.60701 | 6.36582 | 38907 ft | 500 kts | 133° |
| 2026-05-09 05:21 | 3.55677 | 6.41441 | 38907 ft | 500 kts | 133° |
| 2026-05-09 05:21 | 3.50665 | 6.46286 | 38906 ft | 500 kts | 133° |
| 2026-05-09 05:22 | 3.45682 | 6.51105 | 38908 ft | 500 kts | 133° |
| 2026-05-09 05:22 | 3.40680 | 6.55939 | 38906 ft | 500 kts | 133° |
| 2026-05-09 05:23 | 3.35665 | 6.60787 | 38904 ft | 500 kts | 133° |
| 2026-05-09 05:23 | 3.30660 | 6.65624 | 38910 ft | 499 kts | 133° |
| 2026-05-09 05:24 | 3.25653 | 6.70461 | 38913 ft | 500 kts | 133° |
| 2026-05-09 05:24 | 3.20647 | 6.75298 | 38912 ft | 499 kts | 133° |
| 2026-05-09 05:25 | 3.15638 | 6.80152 | 38912 ft | 499 kts | 133° |
| 2026-05-09 05:25 | 3.08203 | 6.87466 | 38912 ft | 499 kts | 133° |
| 2026-05-09 05:26 | 3.03260 | 6.92326 | 38912 ft | 499 kts | 133° |
| 2026-05-09 05:26 | 2.98304 | 6.97197 | 38911 ft | 498 kts | 133° |
| 2026-05-09 05:27 | 2.93351 | 7.02062 | 38912 ft | 498 kts | 133° |
| 2026-05-09 05:27 | 2.88374 | 7.06950 | 38908 ft | 498 kts | 133° |
| 2026-05-09 05:28 | 2.83441 | 7.11795 | 38907 ft | 498 kts | 133° |
| 2026-05-09 05:28 | 2.78481 | 7.16665 | 38907 ft | 498 kts | 133° |
| 2026-05-09 05:29 | 2.73547 | 7.21508 | 38907 ft | 498 kts | 133° |
| 2026-05-09 05:29 | 2.68595 | 7.26369 | 38909 ft | 498 kts | 133° |
| 2026-05-09 05:30 | 2.63661 | 7.31211 | 38909 ft | 497 kts | 133° |
| 2026-05-09 05:30 | 2.58681 | 7.36098 | 38906 ft | 498 kts | 133° |
| 2026-05-09 05:31 | 2.53751 | 7.40935 | 38911 ft | 498 kts | 133° |
| 2026-05-09 05:31 | 2.48771 | 7.45778 | 38909 ft | 498 kts | 133° |
| 2026-05-09 05:32 | 2.43771 | 7.50605 | 38909 ft | 498 kts | 133° |
| 2026-05-09 05:32 | 2.38781 | 7.55424 | 38908 ft | 498 kts | 133° |
| 2026-05-09 05:33 | 2.33779 | 7.60255 | 38906 ft | 499 kts | 133° |
| 2026-05-09 05:33 | 2.28816 | 7.65050 | 38906 ft | 498 kts | 133° |
| 2026-05-09 05:34 | 2.23794 | 7.69902 | 38912 ft | 499 kts | 133° |
| 2026-05-09 05:34 | 2.18827 | 7.74699 | 38916 ft | 498 kts | 133° |
| 2026-05-09 05:35 | 2.13821 | 7.79535 | 38915 ft | 499 kts | 133° |
| 2026-05-09 05:35 | 2.08819 | 7.84366 | 38911 ft | 499 kts | 133° |
| 2026-05-09 05:36 | 2.03821 | 7.89193 | 38918 ft | 500 kts | 133° |
| 2026-05-09 05:36 | 1.98819 | 7.94023 | 38915 ft | 499 kts | 133° |
| 2026-05-09 05:37 | 1.93807 | 7.98862 | 38909 ft | 500 kts | 133° |
| 2026-05-09 05:37 | 1.88784 | 8.03724 | 38908 ft | 499 kts | 133° |
| 2026-05-09 05:38 | 1.83807 | 8.08554 | 38906 ft | 499 kts | 133° |
| 2026-05-09 05:38 | 1.78827 | 8.13386 | 38906 ft | 498 kts | 133° |
| 2026-05-09 05:39 | 1.73833 | 8.18230 | 38904 ft | 499 kts | 133° |
| 2026-05-09 05:39 | 1.68843 | 8.23069 | 38907 ft | 498 kts | 133° |
| 2026-05-09 05:40 | 1.63861 | 8.27900 | 38902 ft | 498 kts | 133° |
| 2026-05-09 05:40 | 1.58904 | 8.32708 | 38907 ft | 498 kts | 133° |
| 2026-05-09 05:41 | 1.53903 | 8.37557 | 38909 ft | 498 kts | 133° |
| 2026-05-09 05:41 | 1.48921 | 8.42387 | 38907 ft | 498 kts | 133° |
| 2026-05-09 05:42 | 1.43977 | 8.47181 | 38906 ft | 498 kts | 133° |
| 2026-05-09 05:42 | 1.38992 | 8.52014 | 38906 ft | 498 kts | 133° |
| 2026-05-09 05:43 | 1.34006 | 8.56847 | 38905 ft | 498 kts | 133° |
| 2026-05-09 05:43 | 1.29021 | 8.61678 | 38907 ft | 498 kts | 133° |
| 2026-05-09 05:44 | 1.24025 | 8.66521 | 38911 ft | 498 kts | 134° |
| 2026-05-09 05:44 | 1.19059 | 8.71335 | 38909 ft | 498 kts | 134° |
| 2026-05-09 05:45 | 1.14052 | 8.76187 | 38912 ft | 499 kts | 134° |
| 2026-05-09 05:45 | 1.09072 | 8.81013 | 38911 ft | 499 kts | 134° |
| 2026-05-09 05:46 | 1.04080 | 8.85851 | 38912 ft | 499 kts | 134° |
| 2026-05-09 05:46 | 0.99101 | 8.90676 | 38911 ft | 499 kts | 134° |
| 2026-05-09 05:47 | 0.94088 | 8.95534 | 38912 ft | 500 kts | 134° |
| 2026-05-09 05:47 | 0.89103 | 9.00363 | 38914 ft | 499 kts | 134° |
| 2026-05-09 05:48 | 0.84108 | 9.05203 | 38914 ft | 500 kts | 134° |
| 2026-05-09 05:48 | 0.79123 | 9.10033 | 38912 ft | 500 kts | 134° |
| 2026-05-09 05:49 | 0.74106 | 9.14893 | 38918 ft | 500 kts | 134° |
| 2026-05-09 05:49 | 0.69114 | 9.19730 | 38919 ft | 500 kts | 134° |
| 2026-05-09 05:50 | 0.64095 | 9.24592 | 38923 ft | 500 kts | 133° |
| 2026-05-09 05:50 | 0.59106 | 9.29425 | 38929 ft | 501 kts | 133° |
| 2026-05-09 05:51 | 0.54094 | 9.34281 | 38933 ft | 500 kts | 133° |
| 2026-05-09 05:51 | 0.49061 | 9.39158 | 38936 ft | 501 kts | 133° |
| 2026-05-09 05:52 | 0.44536 | 9.44443 | 38940 ft | 499 kts | 126° |
| 2026-05-09 05:52 | 0.40174 | 9.49847 | 38943 ft | 498 kts | 126° |
| 2026-05-09 05:53 | 0.35806 | 9.55256 | 38937 ft | 499 kts | 126° |
| 2026-05-09 05:53 | 0.31452 | 9.60645 | 38937 ft | 499 kts | 126° |
| 2026-05-09 05:54 | 0.27101 | 9.66028 | 38939 ft | 499 kts | 126° |
| 2026-05-09 05:54 | 0.22708 | 9.71462 | 38942 ft | 499 kts | 126° |
| 2026-05-09 05:55 | 0.18351 | 9.76853 | 38944 ft | 500 kts | 126° |
| 2026-05-09 05:55 | 0.13991 | 9.82246 | 38942 ft | 500 kts | 126° |
| 2026-05-09 05:56 | 0.09609 | 9.87665 | 38942 ft | 499 kts | 126° |
| 2026-05-09 05:56 | 0.05250 | 9.93057 | 38942 ft | 499 kts | 126° |
| 2026-05-09 05:57 | 0.00864 | 9.98482 | 38943 ft | 499 kts | 126° |
| 2026-05-09 05:57 | -0.03492 | 10.03870 | 38943 ft | 500 kts | 126° |
| 2026-05-09 05:58 | -0.07863 | 10.09276 | 38944 ft | 499 kts | 126° |
| 2026-05-09 05:58 | -0.12245 | 10.14696 | 38939 ft | 499 kts | 126° |
| 2026-05-09 05:59 | -0.16644 | 10.20137 | 38940 ft | 500 kts | 126° |
| 2026-05-09 05:59 | -0.21019 | 10.25549 | 38940 ft | 500 kts | 126° |
| 2026-05-09 06:00 | -0.25373 | 10.30933 | 38939 ft | 500 kts | 126° |
| 2026-05-09 06:00 | -0.29747 | 10.36345 | 38938 ft | 500 kts | 126° |
| 2026-05-09 06:01 | -0.34146 | 10.41785 | 38937 ft | 500 kts | 126° |
| 2026-05-09 06:01 | -0.38496 | 10.47166 | 38937 ft | 500 kts | 126° |
| 2026-05-09 06:02 | -0.42895 | 10.52607 | 38937 ft | 500 kts | 126° |
| 2026-05-09 06:02 | -0.47264 | 10.58011 | 38941 ft | 500 kts | 126° |
| 2026-05-09 06:03 | -0.51645 | 10.63432 | 38944 ft | 500 kts | 126° |
| 2026-05-09 06:03 | -0.56016 | 10.68839 | 38950 ft | 500 kts | 127° |
| 2026-05-09 06:04 | -0.60379 | 10.74236 | 38952 ft | 500 kts | 127° |
| 2026-05-09 06:04 | -0.64773 | 10.79673 | 38952 ft | 499 kts | 127° |
| 2026-05-09 06:05 | -0.69129 | 10.85062 | 38952 ft | 500 kts | 126° |
| 2026-05-09 06:05 | -0.73501 | 10.90471 | 38952 ft | 500 kts | 127° |
| 2026-05-09 06:06 | -0.77905 | 10.95920 | 38954 ft | 500 kts | 127° |
| 2026-05-09 06:06 | -0.82283 | 11.01337 | 38956 ft | 500 kts | 127° |
| 2026-05-09 06:07 | -0.85911 | 11.05826 | 38959 ft | 500 kts | 127° |
| 2026-05-09 06:07 | -0.91028 | 11.12158 | 38961 ft | 499 kts | 127° |
| 2026-05-09 06:08 | -0.95386 | 11.17550 | 38963 ft | 499 kts | 127° |
| 2026-05-09 06:08 | -0.99758 | 11.22961 | 38964 ft | 499 kts | 127° |
| 2026-05-09 06:09 | -1.04112 | 11.28350 | 38968 ft | 499 kts | 127° |
| 2026-05-09 06:09 | -1.08470 | 11.33743 | 38972 ft | 498 kts | 127° |
| 2026-05-09 06:10 | -1.12843 | 11.39155 | 38973 ft | 498 kts | 127° |
| 2026-05-09 06:10 | -1.17210 | 11.44560 | 38976 ft | 498 kts | 127° |
| 2026-05-09 06:11 | -1.21573 | 11.49962 | 38976 ft | 498 kts | 127° |
| 2026-05-09 06:11 | -1.25916 | 11.55337 | 38980 ft | 497 kts | 127° |
| 2026-05-09 06:12 | -1.30257 | 11.60711 | 38989 ft | 497 kts | 127° |
| 2026-05-09 06:12 | -1.34631 | 11.66127 | 38999 ft | 497 kts | 127° |
| 2026-05-09 06:13 | -1.38983 | 11.71514 | 39009 ft | 497 kts | 127° |
| 2026-05-09 06:13 | -1.43323 | 11.76888 | 39018 ft | 497 kts | 127° |
| 2026-05-09 06:14 | -1.47662 | 11.82260 | 39019 ft | 497 kts | 127° |
| 2026-05-09 06:14 | -1.52017 | 11.87654 | 39027 ft | 497 kts | 127° |
| 2026-05-09 06:15 | -1.56371 | 11.93045 | 39030 ft | 497 kts | 127° |
| 2026-05-09 06:15 | -1.60706 | 11.98414 | 39035 ft | 496 kts | 127° |
| 2026-05-09 06:16 | -1.65032 | 12.03773 | 39036 ft | 496 kts | 127° |
| 2026-05-09 06:16 | -1.69374 | 12.09150 | 39035 ft | 496 kts | 127° |
| 2026-05-09 06:17 | -1.73701 | 12.14512 | 39034 ft | 496 kts | 127° |
| 2026-05-09 06:17 | -1.78063 | 12.19916 | 39028 ft | 496 kts | 127° |
| 2026-05-09 06:18 | -1.82388 | 12.25275 | 39021 ft | 496 kts | 127° |
| 2026-05-09 06:18 | -1.86733 | 12.30658 | 39018 ft | 496 kts | 127° |
| 2026-05-09 06:19 | -1.91038 | 12.35993 | 39022 ft | 496 kts | 127° |
| 2026-05-09 06:19 | -1.95428 | 12.41433 | 39028 ft | 495 kts | 127° |
| 2026-05-09 06:20 | -1.99754 | 12.46795 | 39038 ft | 496 kts | 127° |
| 2026-05-09 06:20 | -2.04079 | 12.52156 | 39041 ft | 496 kts | 128° |
| 2026-05-09 06:21 | -2.08400 | 12.57512 | 39031 ft | 496 kts | 127° |
| 2026-05-09 06:21 | -2.12736 | 12.62888 | 39023 ft | 495 kts | 128° |
| 2026-05-09 06:22 | -2.17102 | 12.68301 | 39018 ft | 495 kts | 128° |
| 2026-05-09 06:22 | -2.21425 | 12.73663 | 39011 ft | 495 kts | 128° |
| 2026-05-09 06:23 | -2.25762 | 12.79041 | 39004 ft | 496 kts | 128° |
| 2026-05-09 06:23 | -2.30109 | 12.84433 | 39004 ft | 496 kts | 128° |
| 2026-05-09 06:24 | -2.34424 | 12.89785 | 39000 ft | 496 kts | 128° |
| 2026-05-09 06:24 | -2.38781 | 12.95190 | 39001 ft | 497 kts | 128° |
| 2026-05-09 06:25 | -2.43095 | 13.00542 | 38998 ft | 496 kts | 128° |
| 2026-05-09 06:25 | -2.47454 | 13.05951 | 38997 ft | 495 kts | 128° |
| 2026-05-09 06:26 | -2.51780 | 13.11317 | 38993 ft | 496 kts | 128° |
| 2026-05-09 06:26 | -2.56092 | 13.16666 | 38992 ft | 495 kts | 128° |
| 2026-05-09 06:27 | -2.60432 | 13.22049 | 38995 ft | 496 kts | 128° |
| 2026-05-09 06:27 | -2.64764 | 13.27424 | 38989 ft | 496 kts | 128° |
| 2026-05-09 06:28 | -2.69106 | 13.32812 | 38989 ft | 495 kts | 128° |
| 2026-05-09 06:28 | -2.73439 | 13.38193 | 38991 ft | 495 kts | 128° |
| 2026-05-09 06:29 | -2.77764 | 13.43566 | 38989 ft | 495 kts | 128° |
| 2026-05-09 06:29 | -2.82074 | 13.48920 | 38986 ft | 495 kts | 128° |
| 2026-05-09 06:30 | -2.86409 | 13.54306 | 38985 ft | 496 kts | 128° |
| 2026-05-09 06:30 | -2.90758 | 13.59711 | 38983 ft | 495 kts | 128° |
| 2026-05-09 06:31 | -2.95047 | 13.65041 | 38982 ft | 495 kts | 128° |
| 2026-05-09 06:31 | -2.99386 | 13.70435 | 38982 ft | 494 kts | 128° |
| 2026-05-09 06:32 | -3.03778 | 13.75895 | 38986 ft | 494 kts | 128° |
| 2026-05-09 06:33 | -3.08909 | 13.82274 | 38981 ft | 493 kts | 128° |
| 2026-05-09 06:33 | -3.13245 | 13.87666 | 38982 ft | 493 kts | 128° |
| 2026-05-09 06:34 | -3.19726 | 13.95727 | 38977 ft | 495 kts | 128° |
| 2026-05-09 06:34 | -3.24026 | 14.01077 | 38975 ft | 494 kts | 128° |
| 2026-05-09 06:35 | -3.28367 | 14.06478 | 38982 ft | 493 kts | 128° |
| 2026-05-09 06:35 | -3.32659 | 14.11819 | 38979 ft | 493 kts | 128° |
| 2026-05-09 06:36 | -3.36973 | 14.17188 | 38972 ft | 493 kts | 128° |
| 2026-05-09 06:36 | -3.41311 | 14.22588 | 38965 ft | 493 kts | 128° |
| 2026-05-09 06:37 | -3.45645 | 14.27936 | 38960 ft | 493 kts | 129° |
| 2026-05-09 06:37 | -3.49994 | 14.33213 | 38957 ft | 493 kts | 129° |
| 2026-05-09 06:38 | -3.54374 | 14.38533 | 38956 ft | 492 kts | 128° |
| 2026-05-09 06:38 | -3.58743 | 14.43843 | 38954 ft | 493 kts | 128° |
| 2026-05-09 06:39 | -3.63125 | 14.49173 | 38954 ft | 492 kts | 128° |
| 2026-05-09 06:39 | -3.67456 | 14.54441 | 38959 ft | 493 kts | 128° |
| 2026-05-09 06:40 | -3.71808 | 14.59736 | 38960 ft | 492 kts | 128° |
| 2026-05-09 06:40 | -3.76195 | 14.65075 | 38961 ft | 493 kts | 128° |
| 2026-05-09 06:41 | -3.80537 | 14.70361 | 38965 ft | 492 kts | 128° |
| 2026-05-09 06:41 | -3.84906 | 14.75680 | 38967 ft | 493 kts | 128° |
| 2026-05-09 06:42 | -3.89265 | 14.80988 | 38968 ft | 492 kts | 128° |
| 2026-05-09 06:42 | -3.93643 | 14.86321 | 38967 ft | 493 kts | 128° |
| 2026-05-09 06:43 | -3.97970 | 14.91592 | 38968 ft | 493 kts | 128° |
| 2026-05-09 06:43 | -4.02324 | 14.96897 | 38966 ft | 493 kts | 128° |
| 2026-05-09 06:44 | -4.06710 | 15.02242 | 38961 ft | 493 kts | 128° |
| 2026-05-09 06:44 | -4.11060 | 15.07545 | 38953 ft | 493 kts | 128° |
| 2026-05-09 06:45 | -4.15410 | 15.12848 | 38945 ft | 492 kts | 128° |
| 2026-05-09 06:45 | -4.19759 | 15.18150 | 38935 ft | 492 kts | 128° |
| 2026-05-09 06:46 | -4.24133 | 15.23485 | 38930 ft | 493 kts | 128° |
| 2026-05-09 06:46 | -4.28600 | 15.28715 | 38928 ft | 492 kts | 130° |
| 2026-05-09 06:47 | -4.33144 | 15.33839 | 38927 ft | 492 kts | 130° |
| 2026-05-09 06:47 | -4.37694 | 15.38984 | 38929 ft | 493 kts | 130° |
| 2026-05-09 06:48 | -4.42559 | 15.43913 | 38935 ft | 494 kts | 137° |
| 2026-05-09 06:48 | -4.47707 | 15.48442 | 38933 ft | 494 kts | 137° |
| 2026-05-09 06:49 | -4.52892 | 15.53000 | 38937 ft | 493 kts | 137° |
| 2026-05-09 06:49 | -4.58063 | 15.57550 | 38940 ft | 494 kts | 137° |
| 2026-05-09 06:50 | -4.63262 | 15.62128 | 38944 ft | 494 kts | 137° |
| 2026-05-09 06:50 | -4.68416 | 15.66668 | 38956 ft | 494 kts | 137° |
| 2026-05-09 06:51 | -4.73598 | 15.71234 | 38959 ft | 494 kts | 137° |
| 2026-05-09 06:51 | -4.78750 | 15.75774 | 38966 ft | 495 kts | 137° |
| 2026-05-09 06:52 | -4.83937 | 15.80347 | 38962 ft | 494 kts | 137° |
| 2026-05-09 06:52 | -4.89113 | 15.84911 | 38965 ft | 494 kts | 137° |
| 2026-05-09 06:53 | -4.94265 | 15.89455 | 38962 ft | 495 kts | 137° |
| 2026-05-09 06:53 | -4.99451 | 15.94031 | 38964 ft | 494 kts | 138° |
| 2026-05-09 06:54 | -5.04613 | 15.98585 | 38962 ft | 494 kts | 137° |
| 2026-05-09 06:54 | -5.09774 | 16.03140 | 38962 ft | 494 kts | 137° |
| 2026-05-09 06:55 | -5.14954 | 16.07713 | 38963 ft | 494 kts | 137° |
| 2026-05-09 06:55 | -5.20141 | 16.12294 | 38966 ft | 496 kts | 137° |
| 2026-05-09 06:56 | -5.25321 | 16.16868 | 38962 ft | 495 kts | 137° |
| 2026-05-09 06:56 | -5.30517 | 16.21458 | 38966 ft | 496 kts | 137° |
| 2026-05-09 06:57 | -5.35703 | 16.26041 | 38965 ft | 496 kts | 137° |
| 2026-05-09 06:57 | -5.40927 | 16.30628 | 38967 ft | 498 kts | 139° |
| 2026-05-09 06:58 | -5.46187 | 16.35135 | 38963 ft | 497 kts | 139° |
| 2026-05-09 06:58 | -5.51459 | 16.39655 | 38965 ft | 497 kts | 138° |
| 2026-05-09 06:59 | -5.56714 | 16.44165 | 38969 ft | 498 kts | 138° |
| 2026-05-09 06:59 | -5.61993 | 16.48699 | 38967 ft | 498 kts | 138° |
| 2026-05-09 07:00 | -5.67270 | 16.53233 | 38968 ft | 498 kts | 138° |
| 2026-05-09 07:00 | -5.72558 | 16.57778 | 38973 ft | 498 kts | 139° |
| 2026-05-09 07:01 | -5.77866 | 16.62343 | 38972 ft | 499 kts | 138° |
| 2026-05-09 07:01 | -5.83147 | 16.66885 | 38975 ft | 499 kts | 138° |
| 2026-05-09 07:02 | -5.88439 | 16.71438 | 38977 ft | 500 kts | 138° |
| 2026-05-09 07:02 | -5.93766 | 16.76022 | 38979 ft | 500 kts | 138° |
| 2026-05-09 07:03 | -5.99068 | 16.80586 | 38986 ft | 500 kts | 138° |
| 2026-05-09 07:03 | -6.04362 | 16.85144 | 38991 ft | 501 kts | 138° |
| 2026-05-09 07:04 | -6.09710 | 16.89750 | 38997 ft | 501 kts | 138° |
| 2026-05-09 07:04 | -6.14820 | 16.94554 | 38995 ft | 501 kts | 135° |
| 2026-05-09 07:05 | -6.19834 | 16.99464 | 39010 ft | 501 kts | 135° |
| 2026-05-09 07:05 | -6.24830 | 17.04338 | 39003 ft | 501 kts | 135° |
| 2026-05-09 07:06 | -6.29870 | 17.09241 | 38993 ft | 501 kts | 135° |
| 2026-05-09 07:06 | -6.34891 | 17.14121 | 38990 ft | 502 kts | 135° |
| 2026-05-09 07:07 | -6.39928 | 17.19014 | 38993 ft | 502 kts | 135° |
| 2026-05-09 07:07 | -6.44995 | 17.23934 | 39006 ft | 502 kts | 135° |
| 2026-05-09 07:08 | -6.50031 | 17.28825 | 39022 ft | 502 kts | 135° |
| 2026-05-09 07:08 | -6.55071 | 17.33722 | 39019 ft | 502 kts | 134° |
| 2026-05-09 07:09 | -6.59996 | 17.38742 | 39009 ft | 502 kts | 133° |
| 2026-05-09 07:09 | -6.64918 | 17.43795 | 38992 ft | 503 kts | 133° |
| 2026-05-09 07:10 | -6.69817 | 17.48817 | 38978 ft | 503 kts | 133° |
| 2026-05-09 07:10 | -6.74698 | 17.53817 | 38969 ft | 503 kts | 134° |
| 2026-05-09 07:11 | -6.79615 | 17.58854 | 38981 ft | 503 kts | 133° |
| 2026-05-09 07:11 | -6.84565 | 17.63923 | 38994 ft | 503 kts | 134° |
| 2026-05-09 07:12 | -6.89486 | 17.68965 | 39001 ft | 504 kts | 133° |
| 2026-05-09 07:12 | -6.94405 | 17.74005 | 39013 ft | 503 kts | 133° |
| 2026-05-09 07:13 | -6.99318 | 17.79039 | 39016 ft | 504 kts | 133° |
| 2026-05-09 07:13 | -7.04248 | 17.84094 | 39011 ft | 504 kts | 133° |
| 2026-05-09 07:14 | -7.09167 | 17.89139 | 39006 ft | 505 kts | 133° |
| 2026-05-09 07:14 | -7.14094 | 17.94193 | 39004 ft | 505 kts | 133° |
| 2026-05-09 07:15 | -7.19015 | 17.99243 | 39005 ft | 505 kts | 133° |
| 2026-05-09 07:15 | -7.23961 | 18.04320 | 39005 ft | 505 kts | 133° |
| 2026-05-09 07:16 | -7.28878 | 18.09369 | 39007 ft | 505 kts | 133° |
| 2026-05-09 07:16 | -7.33826 | 18.14452 | 39009 ft | 504 kts | 133° |
| 2026-05-09 07:17 | -7.38745 | 18.19506 | 39011 ft | 504 kts | 133° |
| 2026-05-09 07:17 | -7.43646 | 18.24544 | 39014 ft | 504 kts | 133° |
| 2026-05-09 07:18 | -7.48597 | 18.29635 | 39015 ft | 504 kts | 133° |
| 2026-05-09 07:18 | -7.53495 | 18.34672 | 39023 ft | 504 kts | 133° |
| 2026-05-09 07:19 | -7.58410 | 18.39730 | 39019 ft | 504 kts | 133° |
| 2026-05-09 07:19 | -7.63323 | 18.44787 | 39024 ft | 504 kts | 133° |
| 2026-05-09 07:20 | -7.68251 | 18.49861 | 39027 ft | 503 kts | 133° |
| 2026-05-09 07:20 | -7.73147 | 18.54904 | 39032 ft | 503 kts | 134° |
| 2026-05-09 07:21 | -7.78035 | 18.59941 | 39036 ft | 503 kts | 133° |
| 2026-05-09 07:21 | -7.82937 | 18.64993 | 39048 ft | 503 kts | 133° |
| 2026-05-09 07:22 | -7.88037 | 18.69924 | 39058 ft | 503 kts | 136° |
| 2026-05-09 07:22 | -7.93133 | 18.74754 | 39064 ft | 503 kts | 136° |
| 2026-05-09 07:23 | -7.98236 | 18.79605 | 39078 ft | 503 kts | 136° |
| 2026-05-09 07:23 | -8.03340 | 18.84467 | 39071 ft | 503 kts | 136° |
| 2026-05-09 07:24 | -8.08459 | 18.89350 | 39075 ft | 503 kts | 136° |
| 2026-05-09 07:24 | -8.13568 | 18.94226 | 39072 ft | 503 kts | 136° |
| 2026-05-09 07:25 | -8.18672 | 18.99101 | 39072 ft | 503 kts | 136° |
| 2026-05-09 07:25 | -8.23758 | 19.03962 | 39065 ft | 503 kts | 136° |
| 2026-05-09 07:26 | -8.28863 | 19.08844 | 39065 ft | 503 kts | 136° |
| 2026-05-09 07:26 | -8.33951 | 19.13710 | 39069 ft | 503 kts | 136° |
| 2026-05-09 07:27 | -8.39040 | 19.18580 | 39074 ft | 503 kts | 135° |
| 2026-05-09 07:27 | -8.44138 | 19.23460 | 39071 ft | 503 kts | 135° |
| 2026-05-09 07:28 | -8.49235 | 19.28342 | 39068 ft | 503 kts | 136° |
| 2026-05-09 07:28 | -8.54340 | 19.33232 | 39064 ft | 503 kts | 135° |
| 2026-05-09 07:29 | -8.59432 | 19.38113 | 39067 ft | 503 kts | 135° |
| 2026-05-09 07:29 | -8.64535 | 19.43005 | 39058 ft | 503 kts | 135° |
| 2026-05-09 07:30 | -8.69618 | 19.47881 | 39055 ft | 503 kts | 135° |
| 2026-05-09 07:30 | -8.74694 | 19.52751 | 39054 ft | 503 kts | 135° |
| 2026-05-09 07:31 | -8.79750 | 19.57605 | 39053 ft | 503 kts | 135° |
| 2026-05-09 07:31 | -8.84845 | 19.62497 | 39057 ft | 503 kts | 135° |
| 2026-05-09 07:32 | -8.89916 | 19.67369 | 39054 ft | 503 kts | 135° |
| 2026-05-09 07:32 | -8.95030 | 19.72284 | 39053 ft | 503 kts | 135° |
| 2026-05-09 07:33 | -9.02618 | 19.79580 | 39046 ft | 503 kts | 135° |
| 2026-05-09 07:34 | -9.07717 | 19.84485 | 39043 ft | 503 kts | 135° |
| 2026-05-09 07:34 | -9.12791 | 19.89369 | 39041 ft | 503 kts | 135° |
| 2026-05-09 07:35 | -9.17865 | 19.94255 | 39039 ft | 503 kts | 135° |
| 2026-05-09 07:35 | -9.22949 | 19.99151 | 39036 ft | 503 kts | 135° |
| 2026-05-09 07:36 | -9.28029 | 20.04047 | 39037 ft | 503 kts | 135° |
| 2026-05-09 07:36 | -9.33101 | 20.08937 | 39040 ft | 504 kts | 135° |
| 2026-05-09 07:37 | -9.38188 | 20.13843 | 39039 ft | 504 kts | 135° |
| 2026-05-09 07:37 | -9.43273 | 20.18750 | 39044 ft | 504 kts | 135° |
| 2026-05-09 07:38 | -9.48388 | 20.23687 | 39041 ft | 504 kts | 135° |
| 2026-05-09 07:38 | -9.53451 | 20.28576 | 39050 ft | 504 kts | 135° |
| 2026-05-09 07:39 | -9.58545 | 20.33498 | 39047 ft | 505 kts | 135° |
| 2026-05-09 07:39 | -9.63637 | 20.38419 | 39044 ft | 505 kts | 135° |
| 2026-05-09 07:40 | -9.68539 | 20.43588 | 39047 ft | 504 kts | 126° |
| 2026-05-09 07:40 | -9.72172 | 20.49677 | 39042 ft | 504 kts | 118° |
| 2026-05-09 07:41 | -9.75563 | 20.55904 | 39041 ft | 503 kts | 118° |
| 2026-05-09 07:41 | -9.78928 | 20.62101 | 39046 ft | 504 kts | 118° |
| 2026-05-09 07:42 | -9.82328 | 20.68370 | 39052 ft | 504 kts | 118° |
| 2026-05-09 07:42 | -9.85694 | 20.74584 | 39058 ft | 504 kts | 118° |
| 2026-05-09 07:43 | -9.89068 | 20.80817 | 39066 ft | 504 kts | 118° |
| 2026-05-09 07:43 | -9.92455 | 20.87080 | 39068 ft | 504 kts | 118° |
| 2026-05-09 07:44 | -9.95830 | 20.93323 | 39068 ft | 504 kts | 118° |
| 2026-05-09 07:44 | -9.99194 | 20.99550 | 39081 ft | 504 kts | 118° |
| 2026-05-09 07:45 | -10.02576 | 21.05815 | 39080 ft | 504 kts | 118° |
| 2026-05-09 07:45 | -10.05944 | 21.12056 | 39078 ft | 504 kts | 118° |
| 2026-05-09 07:46 | -10.09308 | 21.18293 | 39077 ft | 504 kts | 118° |
| 2026-05-09 07:46 | -10.12672 | 21.24534 | 39076 ft | 504 kts | 118° |
| 2026-05-09 07:47 | -10.16047 | 21.30801 | 39075 ft | 504 kts | 118° |
| 2026-05-09 07:47 | -10.19395 | 21.37018 | 39071 ft | 503 kts | 118° |
| 2026-05-09 07:48 | -10.22761 | 21.43275 | 39076 ft | 503 kts | 118° |
| 2026-05-09 07:48 | -10.26119 | 21.49518 | 39067 ft | 501 kts | 117° |
| 2026-05-09 07:49 | -10.29469 | 21.55751 | 39066 ft | 501 kts | 117° |
| 2026-05-09 07:49 | -10.32811 | 21.61972 | 39068 ft | 500 kts | 117° |
| 2026-05-09 07:50 | -10.36145 | 21.68183 | 39067 ft | 500 kts | 117° |
| 2026-05-09 07:50 | -10.39476 | 21.74392 | 39061 ft | 498 kts | 117° |
| 2026-05-09 07:51 | -10.42812 | 21.80612 | 39059 ft | 498 kts | 117° |
| 2026-05-09 07:51 | -10.46114 | 21.86774 | 39061 ft | 498 kts | 117° |
| 2026-05-09 07:52 | -10.49451 | 21.93004 | 39062 ft | 497 kts | 117° |
| 2026-05-09 07:52 | -10.52757 | 21.99179 | 39062 ft | 496 kts | 117° |
| 2026-05-09 07:53 | -10.56041 | 22.05316 | 39060 ft | 496 kts | 117° |
| 2026-05-09 07:53 | -10.59343 | 22.11492 | 39058 ft | 496 kts | 117° |
| 2026-05-09 07:54 | -10.62647 | 22.17674 | 39058 ft | 495 kts | 117° |
| 2026-05-09 07:54 | -10.65922 | 22.23807 | 39057 ft | 496 kts | 117° |
| 2026-05-09 07:55 | -10.69209 | 22.29964 | 39057 ft | 495 kts | 117° |
| 2026-05-09 07:55 | -10.72500 | 22.36133 | 39061 ft | 495 kts | 117° |
| 2026-05-09 07:56 | -10.75780 | 22.42285 | 39062 ft | 494 kts | 117° |
| 2026-05-09 07:56 | -10.79057 | 22.48435 | 39063 ft | 494 kts | 117° |
| 2026-05-09 07:57 | -10.82348 | 22.54615 | 39064 ft | 494 kts | 117° |
| 2026-05-09 07:57 | -10.85808 | 22.61116 | 39065 ft | 494 kts | 117° |
| 2026-05-09 07:58 | -10.89073 | 22.67256 | 39070 ft | 494 kts | 117° |
| 2026-05-09 07:58 | -10.92343 | 22.73406 | 39072 ft | 493 kts | 117° |
| 2026-05-09 07:59 | -10.95612 | 22.79560 | 39074 ft | 493 kts | 117° |
| 2026-05-09 07:59 | -10.98868 | 22.85694 | 39077 ft | 493 kts | 117° |
| 2026-05-09 08:00 | -11.02139 | 22.91857 | 39080 ft | 493 kts | 117° |
| 2026-05-09 08:00 | -11.05403 | 22.98013 | 39080 ft | 492 kts | 117° |
| 2026-05-09 08:01 | -11.08669 | 23.04176 | 39079 ft | 492 kts | 117° |
| 2026-05-09 08:01 | -11.11937 | 23.10345 | 39079 ft | 491 kts | 117° |
| 2026-05-09 08:02 | -11.15179 | 23.16471 | 39078 ft | 493 kts | 117° |
| 2026-05-09 08:02 | -11.18441 | 23.22637 | 39079 ft | 493 kts | 117° |
| 2026-05-09 08:03 | -11.21705 | 23.28810 | 39079 ft | 492 kts | 117° |
| 2026-05-09 08:03 | -11.24942 | 23.34938 | 39078 ft | 492 kts | 117° |
| 2026-05-09 08:04 | -11.28203 | 23.41112 | 39076 ft | 492 kts | 117° |
| 2026-05-09 08:04 | -11.31450 | 23.47266 | 39073 ft | 492 kts | 117° |
| 2026-05-09 08:05 | -11.34679 | 23.53389 | 39073 ft | 493 kts | 117° |
| 2026-05-09 08:05 | -11.37936 | 23.59569 | 39074 ft | 493 kts | 117° |
| 2026-05-09 08:06 | -11.41181 | 23.65730 | 39075 ft | 492 kts | 117° |
| 2026-05-09 08:06 | -11.44418 | 23.71878 | 39079 ft | 493 kts | 117° |
| 2026-05-09 08:07 | -11.47660 | 23.78042 | 39082 ft | 492 kts | 117° |
| 2026-05-09 08:07 | -11.50899 | 23.84202 | 39092 ft | 493 kts | 117° |
| 2026-05-09 08:08 | -11.54146 | 23.90382 | 39103 ft | 492 kts | 117° |
| 2026-05-09 08:08 | -11.57394 | 23.96568 | 39114 ft | 493 kts | 117° |
| 2026-05-09 08:09 | -11.60617 | 24.02704 | 39121 ft | 493 kts | 117° |
| 2026-05-09 08:09 | -11.63855 | 24.08874 | 39117 ft | 493 kts | 117° |
| 2026-05-09 08:10 | -11.67121 | 24.15101 | 39113 ft | 494 kts | 117° |
| 2026-05-09 08:10 | -11.70350 | 24.21262 | 39119 ft | 493 kts | 117° |
| 2026-05-09 08:11 | -11.73603 | 24.27473 | 39117 ft | 494 kts | 117° |
| 2026-05-09 08:11 | -11.76841 | 24.33658 | 39116 ft | 494 kts | 117° |
| 2026-05-09 08:12 | -11.81731 | 24.43007 | 39109 ft | 495 kts | 117° |
| 2026-05-09 08:12 | -11.84979 | 24.49222 | 39110 ft | 496 kts | 117° |
| 2026-05-09 08:13 | -11.88229 | 24.55445 | 39105 ft | 496 kts | 117° |
| 2026-05-09 08:13 | -11.91492 | 24.61698 | 39105 ft | 497 kts | 117° |
| 2026-05-09 08:14 | -11.94759 | 24.67963 | 39111 ft | 496 kts | 117° |
| 2026-05-09 08:14 | -11.98002 | 24.74184 | 39108 ft | 497 kts | 117° |
| 2026-05-09 08:15 | -12.01238 | 24.80397 | 39100 ft | 498 kts | 117° |
| 2026-05-09 08:15 | -12.04498 | 24.86660 | 39098 ft | 497 kts | 117° |
| 2026-05-09 08:16 | -12.07755 | 24.92921 | 39098 ft | 498 kts | 117° |
| 2026-05-09 08:16 | -12.10999 | 24.99162 | 39092 ft | 498 kts | 117° |
| 2026-05-09 08:17 | -12.14256 | 25.05432 | 39086 ft | 498 kts | 117° |
| 2026-05-09 08:17 | -12.17501 | 25.11683 | 39085 ft | 498 kts | 117° |
| 2026-05-09 08:18 | -12.20764 | 25.17973 | 39079 ft | 498 kts | 117° |
| 2026-05-09 08:18 | -12.23996 | 25.24208 | 39084 ft | 499 kts | 117° |
| 2026-05-09 08:19 | -12.27251 | 25.30489 | 39085 ft | 499 kts | 117° |
| 2026-05-09 08:19 | -12.30502 | 25.36769 | 39093 ft | 498 kts | 117° |
| 2026-05-09 08:20 | -12.33741 | 25.43030 | 39092 ft | 499 kts | 117° |
| 2026-05-09 08:20 | -12.36969 | 25.49275 | 39101 ft | 499 kts | 117° |
| 2026-05-09 08:21 | -12.40230 | 25.55586 | 39104 ft | 499 kts | 117° |
| 2026-05-09 08:21 | -12.43451 | 25.61826 | 39108 ft | 499 kts | 117° |
| 2026-05-09 08:22 | -12.46718 | 25.68157 | 39109 ft | 499 kts | 117° |
| 2026-05-09 08:22 | -12.49976 | 25.74478 | 39108 ft | 500 kts | 117° |
| 2026-05-09 08:23 | -12.53230 | 25.80793 | 39108 ft | 499 kts | 117° |
| 2026-05-09 08:23 | -12.56486 | 25.87119 | 39113 ft | 500 kts | 117° |
| 2026-05-09 08:24 | -12.59733 | 25.93430 | 39119 ft | 500 kts | 117° |
| 2026-05-09 08:24 | -12.62994 | 25.99773 | 39120 ft | 500 kts | 117° |
| 2026-05-09 08:25 | -12.66221 | 26.06053 | 39122 ft | 500 kts | 117° |
| 2026-05-09 08:25 | -12.69473 | 26.12389 | 39119 ft | 500 kts | 117° |
| 2026-05-09 08:26 | -12.72712 | 26.18702 | 39115 ft | 500 kts | 117° |
| 2026-05-09 08:26 | -12.75958 | 26.25035 | 39110 ft | 499 kts | 117° |
| 2026-05-09 08:27 | -12.79173 | 26.31310 | 39109 ft | 499 kts | 117° |
| 2026-05-09 08:27 | -12.82416 | 26.37645 | 39111 ft | 499 kts | 117° |
| 2026-05-09 08:28 | -12.85641 | 26.43951 | 39111 ft | 499 kts | 117° |
| 2026-05-09 08:28 | -12.88866 | 26.50259 | 39109 ft | 499 kts | 117° |
| 2026-05-09 08:29 | -12.92076 | 26.56544 | 39108 ft | 500 kts | 117° |
| 2026-05-09 08:29 | -12.95311 | 26.62882 | 39109 ft | 500 kts | 117° |
| 2026-05-09 08:30 | -12.98537 | 26.69207 | 39110 ft | 499 kts | 117° |
| 2026-05-09 08:30 | -13.01754 | 26.75519 | 39110 ft | 499 kts | 117° |
| 2026-05-09 08:31 | -13.05063 | 26.81782 | 39107 ft | 500 kts | 123° |
| 2026-05-09 08:31 | -13.09645 | 26.87107 | 39104 ft | 501 kts | 140° |
| 2026-05-09 08:32 | -13.15348 | 26.91327 | 39100 ft | 501 kts | 144° |
| 2026-05-09 08:33 | -13.23942 | 26.97422 | 39097 ft | 501 kts | 144° |
| 2026-05-09 08:33 | -13.29699 | 27.01508 | 39093 ft | 501 kts | 144° |
| 2026-05-09 08:34 | -13.35432 | 27.05579 | 39095 ft | 501 kts | 144° |
| 2026-05-09 08:34 | -13.41185 | 27.09669 | 39093 ft | 501 kts | 145° |
| 2026-05-09 08:35 | -13.46947 | 27.13767 | 39091 ft | 501 kts | 145° |
| 2026-05-09 08:35 | -13.52681 | 27.17848 | 39093 ft | 501 kts | 144° |
| 2026-05-09 08:36 | -13.58425 | 27.21938 | 39090 ft | 501 kts | 145° |
| 2026-05-09 08:36 | -13.64167 | 27.26029 | 39088 ft | 501 kts | 145° |
| 2026-05-09 08:37 | -13.69919 | 27.30130 | 39085 ft | 501 kts | 145° |
| 2026-05-09 08:37 | -13.75663 | 27.34228 | 39085 ft | 501 kts | 144° |
| 2026-05-09 08:38 | -13.81393 | 27.38318 | 39083 ft | 501 kts | 145° |
| 2026-05-09 08:38 | -13.87111 | 27.42402 | 39080 ft | 501 kts | 145° |
| 2026-05-09 08:39 | -13.92870 | 27.46518 | 39086 ft | 501 kts | 145° |
| 2026-05-09 08:39 | -13.98611 | 27.50624 | 39082 ft | 500 kts | 145° |
| 2026-05-09 08:40 | -14.04363 | 27.54740 | 39079 ft | 501 kts | 145° |
| 2026-05-09 08:40 | -14.10121 | 27.58863 | 39078 ft | 501 kts | 145° |
| 2026-05-09 08:41 | -14.15869 | 27.62981 | 39077 ft | 501 kts | 145° |
| 2026-05-09 08:41 | -14.21372 | 27.67424 | 39077 ft | 501 kts | 134° |
| 2026-05-09 08:42 | -14.25463 | 27.73217 | 39068 ft | 501 kts | 117° |
| 2026-05-09 08:42 | -14.28551 | 27.79606 | 39075 ft | 500 kts | 116° |
| 2026-05-09 08:43 | -14.31606 | 27.86069 | 39071 ft | 501 kts | 116° |
| 2026-05-09 08:43 | -14.34665 | 27.92577 | 39065 ft | 500 kts | 115° |
| 2026-05-09 08:44 | -14.37681 | 27.99014 | 39075 ft | 500 kts | 115° |
| 2026-05-09 08:44 | -14.40714 | 28.05501 | 39085 ft | 501 kts | 115° |
| 2026-05-09 08:45 | -14.43735 | 28.11970 | 39082 ft | 500 kts | 115° |
| 2026-05-09 08:45 | -14.46769 | 28.18477 | 39087 ft | 501 kts | 115° |
| 2026-05-09 08:46 | -14.49789 | 28.24959 | 39095 ft | 501 kts | 115° |
| 2026-05-09 08:46 | -14.52807 | 28.31446 | 39098 ft | 501 kts | 115° |
| 2026-05-09 08:47 | -14.55825 | 28.37937 | 39105 ft | 501 kts | 115° |
| 2026-05-09 08:47 | -14.58841 | 28.44431 | 39098 ft | 501 kts | 115° |
| 2026-05-09 08:48 | -14.61867 | 28.50951 | 39099 ft | 500 kts | 116° |
| 2026-05-09 08:48 | -14.64865 | 28.57418 | 39111 ft | 500 kts | 116° |
| 2026-05-09 08:49 | -14.67873 | 28.63911 | 39104 ft | 500 kts | 116° |
| 2026-05-09 08:49 | -14.70890 | 28.70429 | 39099 ft | 501 kts | 115° |
| 2026-05-09 08:50 | -14.73916 | 28.76973 | 39102 ft | 501 kts | 115° |
| 2026-05-09 08:50 | -14.76924 | 28.83483 | 39096 ft | 501 kts | 115° |
| 2026-05-09 08:51 | -14.79916 | 28.89964 | 39090 ft | 501 kts | 115° |
| 2026-05-09 08:51 | -14.82916 | 28.96467 | 39092 ft | 502 kts | 115° |
| 2026-05-09 08:52 | -14.85925 | 29.02999 | 39084 ft | 502 kts | 115° |
| 2026-05-09 08:52 | -14.88917 | 29.09496 | 39072 ft | 502 kts | 116° |
| 2026-05-09 08:53 | -14.92729 | 29.15543 | 39065 ft | 501 kts | 132° |
| 2026-05-09 08:53 | -14.98045 | 29.20145 | 39030 ft | 498 kts | 149° |
| 2026-05-09 08:54 | -15.04446 | 29.22941 | 39058 ft | 500 kts | 166° |
| 2026-05-09 08:54 | -15.11366 | 29.23681 | 39056 ft | 500 kts | 183° |
| 2026-05-09 08:55 | -15.18229 | 29.22321 | 38531 ft | 504 kts | 199° |
| 2026-05-09 08:55 | -15.21445 | 29.20895 | 37884 ft | 503 kts | 208° |
| 2026-05-09 08:55 | -15.24400 | 29.19004 | 37266 ft | 499 kts | 216° |
| 2026-05-09 08:55 | -15.27033 | 29.16678 | 36880 ft | 486 kts | 225° |
| 2026-05-09 08:56 | -15.29237 | 29.14071 | 36431 ft | 476 kts | 233° |
| 2026-05-09 08:56 | -15.31052 | 29.11232 | 35570 ft | 475 kts | 240° |
| 2026-05-09 08:56 | -15.32495 | 29.08141 | 34379 ft | 481 kts | 248° |
| 2026-05-09 08:56 | -15.33514 | 29.04867 | 33094 ft | 488 kts | 256° |
| 2026-05-09 08:57 | -15.34081 | 29.01368 | 31987 ft | 491 kts | 264° |
| 2026-05-09 08:57 | -15.34137 | 28.97865 | 31161 ft | 489 kts | 273° |
| 2026-05-09 08:57 | -15.33696 | 28.94403 | 30517 ft | 482 kts | 282° |
| 2026-05-09 08:57 | -15.32780 | 28.91057 | 29897 ft | 476 kts | 290° |
| 2026-05-09 08:58 | -15.31435 | 28.87961 | 29204 ft | 472 kts | 299° |
| 2026-05-09 08:58 | -15.29641 | 28.85136 | 28546 ft | 467 kts | 308° |
| 2026-05-09 08:58 | -15.27453 | 28.82670 | 27932 ft | 462 kts | 317° |
| 2026-05-09 08:58 | -15.25021 | 28.80526 | 27285 ft | 458 kts | 320° |
| 2026-05-09 08:59 | -15.22629 | 28.78374 | 26626 ft | 455 kts | 316° |
| 2026-05-09 08:59 | -15.20543 | 28.75918 | 25986 ft | 452 kts | 306° |
| 2026-05-09 08:59 | -15.18872 | 28.73182 | 25374 ft | 448 kts | 298° |
| 2026-05-09 08:59 | -15.17522 | 28.70310 | 24763 ft | 444 kts | 292° |
| 2026-05-09 09:00 | -15.16449 | 28.67347 | 24150 ft | 440 kts | 288° |
| 2026-05-09 09:00 | -15.15582 | 28.64338 | 23539 ft | 436 kts | 284° |
| 2026-05-09 09:00 | -15.14861 | 28.61297 | 22993 ft | 431 kts | 282° |
| 2026-05-09 09:00 | -15.14265 | 28.58294 | 22418 ft | 427 kts | 280° |
| 2026-05-09 09:01 | -15.13745 | 28.55259 | 21816 ft | 424 kts | 278° |
| 2026-05-09 09:01 | -15.13301 | 28.52284 | 21277 ft | 419 kts | 277° |
| 2026-05-09 09:01 | -15.12896 | 28.49304 | 20739 ft | 415 kts | 277° |
| 2026-05-09 09:01 | -15.12531 | 28.46377 | 20235 ft | 409 kts | 277° |
| 2026-05-09 09:02 | -15.12190 | 28.43487 | 19635 ft | 407 kts | 277° |
| 2026-05-09 09:02 | -15.12026 | 28.40593 | 19306 ft | 396 kts | 268° |
| 2026-05-09 09:02 | -15.12374 | 28.37849 | 19113 ft | 378 kts | 256° |
| 2026-05-09 09:02 | -15.13183 | 28.35349 | 18697 ft | 361 kts | 244° |
| 2026-05-09 09:03 | -15.14495 | 28.33152 | 18117 ft | 352 kts | 232° |
| 2026-05-09 09:03 | -15.15988 | 28.31188 | 17524 ft | 345 kts | 231° |
| 2026-05-09 09:03 | -15.17492 | 28.29257 | 16940 ft | 339 kts | 228° |
| 2026-05-09 09:03 | -15.19230 | 28.27641 | 16344 ft | 333 kts | 214° |
| 2026-05-09 09:04 | -15.21210 | 28.26486 | 15756 ft | 328 kts | 202° |
| 2026-05-09 09:04 | -15.23380 | 28.25735 | 15151 ft | 322 kts | 192° |
| 2026-05-09 09:04 | -15.25545 | 28.25295 | 14563 ft | 318 kts | 185° |
| 2026-05-09 09:04 | -15.27730 | 28.25366 | 13944 ft | 309 kts | 162° |
| 2026-05-09 09:05 | -15.29611 | 28.26296 | 13336 ft | 300 kts | 138° |
| 2026-05-09 09:05 | -15.30925 | 28.27927 | 12712 ft | 292 kts | 114° |
| 2026-05-09 09:05 | -15.31407 | 28.29923 | 12094 ft | 287 kts | 89° |
| 2026-05-09 09:05 | -15.30982 | 28.31926 | 11463 ft | 285 kts | 63° |
| 2026-05-09 09:06 | -15.29759 | 28.33491 | 10841 ft | 285 kts | 38° |
| 2026-05-09 09:06 | -15.27952 | 28.34349 | 10207 ft | 287 kts | 12° |
| 2026-05-09 09:06 | -15.25974 | 28.34295 | 9579 ft | 290 kts | 346° |
| 2026-05-09 09:06 | -15.24124 | 28.33444 | 8964 ft | 291 kts | 332° |
| 2026-05-09 09:07 | -15.22509 | 28.32163 | 8327 ft | 293 kts | 311° |
| 2026-05-09 09:07 | -15.21287 | 28.30491 | 7709 ft | 293 kts | 306° |
| 2026-05-09 09:07 | -15.20114 | 28.28772 | 7090 ft | 292 kts | 306° |
| 2026-05-09 09:07 | -15.18947 | 28.27076 | 6508 ft | 292 kts | 306° |
| 2026-05-09 09:08 | -15.17742 | 28.25345 | 5978 ft | 298 kts | 306° |
| 2026-05-09 09:08 | -15.16532 | 28.23621 | 5862 ft | 288 kts | 306° |
| 2026-05-09 09:08 | -15.15381 | 28.21984 | 5849 ft | 274 kts | 306° |
| 2026-05-09 09:08 | -15.14529 | 28.20292 | 5836 ft | 261 kts | 283° |
| 2026-05-09 09:09 | -15.14455 | 28.18465 | 5832 ft | 245 kts | 257° |
| 2026-05-09 09:09 | -15.15062 | 28.16902 | 5830 ft | 230 kts | 233° |
| 2026-05-09 09:09 | -15.16268 | 28.15692 | 5834 ft | 213 kts | 208° |
| 2026-05-09 09:09 | -15.17597 | 28.15157 | 5842 ft | 203 kts | 188° |
| 2026-05-09 09:10 | -15.18997 | 28.15120 | 5846 ft | 200 kts | 169° |
| 2026-05-09 09:10 | -15.20318 | 28.15571 | 5849 ft | 197 kts | 150° |
| 2026-05-09 09:10 | -15.21402 | 28.16437 | 5846 ft | 197 kts | 131° |
| 2026-05-09 09:10 | -15.22146 | 28.17609 | 5839 ft | 196 kts | 115° |
| 2026-05-09 09:11 | -15.22699 | 28.18915 | 5847 ft | 196 kts | 114° |
| 2026-05-09 09:11 | -15.23239 | 28.20207 | 5845 ft | 197 kts | 114° |
| 2026-05-09 09:11 | -15.23781 | 28.21506 | 5845 ft | 196 kts | 114° |
| 2026-05-09 09:11 | -15.24328 | 28.22815 | 5847 ft | 198 kts | 113° |
| 2026-05-09 09:12 | -15.24873 | 28.24120 | 5810 ft | 195 kts | 113° |
| 2026-05-09 09:12 | -15.25408 | 28.25403 | 5660 ft | 193 kts | 114° |
| 2026-05-09 09:12 | -15.25944 | 28.26689 | 5643 ft | 196 kts | 113° |
| 2026-05-09 09:12 | -15.26484 | 28.27984 | 5642 ft | 196 kts | 113° |
| 2026-05-09 09:13 | -15.27030 | 28.29293 | 5641 ft | 197 kts | 113° |
| 2026-05-09 09:13 | -15.27580 | 28.30579 | 5641 ft | 196 kts | 120° |
| 2026-05-09 09:13 | -15.28552 | 28.31546 | 5623 ft | 196 kts | 156° |
| 2026-05-09 09:13 | -15.29870 | 28.31864 | 5614 ft | 191 kts | 170° |
| 2026-05-09 09:14 | -15.31184 | 28.32050 | 5579 ft | 186 kts | 167° |
| 2026-05-09 09:14 | -15.32363 | 28.32538 | 5501 ft | 181 kts | 138° |
| 2026-05-09 09:14 | -15.32999 | 28.33629 | 5325 ft | 183 kts | 100° |
| 2026-05-09 09:14 | -15.32787 | 28.34922 | 5090 ft | 184 kts | 60° |
| 2026-05-09 09:15 | -15.31950 | 28.35912 | 4908 ft | 181 kts | 57° |
| 2026-05-09 09:15 | -15.31614 | 28.37121 | 4767 ft | 176 kts | 95° |
| 2026-05-09 09:15 | -15.32106 | 28.38289 | 4592 ft | 179 kts | 122° |
| 2026-05-09 09:15 | -15.32713 | 28.39406 | 4385 ft | 173 kts | 105° |
| 2026-05-09 09:16 | -15.32612 | 28.40637 | 4181 ft | 177 kts | 78° |
| 2026-05-09 09:16 | -15.32896 | 28.43193 | 3933 ft | 172 kts | 94° |
| 2026-05-09 09:16 | -15.32993 | 28.44295 | 3797 ft | 133 kts | 96° |
| 2026-05-09 09:17 | -15.33062 | 28.45076 | 3781 ft | 67 kts | 94° |
| 2026-05-09 09:17 | -15.33046 | 28.45186 | 3780 ft | 8 kts | 30° |
| 2026-05-09 09:17 | -15.32974 | 28.45190 | 3781 ft | 13 kts | 348° |
| 2026-05-09 09:17 | -15.32888 | 28.45137 | 3784 ft | 15 kts | 302° |
| 2026-05-09 09:18 | -15.32826 | 28.45062 | 3786 ft | 16 kts | 0° |
| 2026-05-09 09:18 | -15.32707 | 28.45076 | 3789 ft | 2 kts | 1° |
| 2026-05-09 09:18 | -15.32689 | 28.45076 | 3790 ft | 2 kts | 3° |
| 2026-05-09 09:18 | -15.32686 | 28.45077 | 3790 ft | 0 kts | 10° |